
Distance (Route):
Temperature : 3.3°C
Humidity : 72.2%
Pressure : 0hPa| Receiver | Frames | First received | Last received |
|---|---|---|---|
| DL9RDZ-1 | 462 | 2026-08-31 11:05:26 | 2026-08-31 12:49:44 |
| Receiver | Date | Latitude | Longitude | Direction | Speed | Altitude | Climb | Temperature | Humidity | Pressure | Voltage | Killtimer | Uptime | BKT | XDATA |
|---|---|---|---|---|---|---|---|---|---|---|---|---|---|---|---|
| DL9RDZ-1 | 2026-08-31 12:49:44 | 63.88207 | -22.34137 | 289° | 29km/h | 1016m | -10.0m/s | 3.3°C | 72.2% | 0hPa | 0V | 08:02:00 | 00:00:00 | 00:00:00 | |
| DL9RDZ-1 | 2026-08-31 12:49:33 | 63.88181 | -22.33964 | 290° | 27km/h | 1126m | -10.0m/s | 2.5°C | 69.3% | 0hPa | 0V | 00:00:00 | 00:00:00 | 00:00:00 | |
| DL9RDZ-1 | 2026-08-31 12:49:23 | 63.88164 | -22.33812 | 279° | 27km/h | 1223m | -9.7m/s | 1.6°C | 73.6% | 0hPa | 0V | 00:00:00 | 00:00:00 | 00:00:00 | |
| DL9RDZ-1 | 2026-08-31 12:49:13 | 63.88153 | -22.33656 | 280° | 29km/h | 1322m | -11.0m/s | 0.6°C | 77.6% | 0hPa | 0V | 00:00:00 | 00:00:00 | 00:00:00 | |
| DL9RDZ-1 | 2026-08-31 12:49:02 | 63.88145 | -22.33488 | 277° | 27km/h | 1425m | -8.9m/s | -0.3°C | 80.9% | 0hPa | 0V | 00:00:00 | 00:00:00 | 00:00:00 | |
| DL9RDZ-1 | 2026-08-31 12:48:42 | 63.88155 | -22.33213 | 261° | 26km/h | 1624m | -10.6m/s | -1.7°C | 78.2% | 0hPa | 0V | 08:03:00 | 00:00:00 | 00:00:00 | |
| DL9RDZ-1 | 2026-08-31 12:48:32 | 63.88173 | -22.33072 | 249° | 26km/h | 1716m | -10.5m/s | -2.2°C | 75.3% | 0hPa | 0V | 08:03:00 | 00:00:00 | 00:00:00 | |
| DL9RDZ-1 | 2026-08-31 12:48:22 | 63.88204 | -22.32938 | 240° | 26km/h | 1814m | -10.5m/s | -3.0°C | 79.1% | 0hPa | 0V | 08:03:00 | 00:00:00 | 00:00:00 | |
| DL9RDZ-1 | 2026-08-31 12:48:11 | 63.88242 | -22.32808 | 238° | 24km/h | 1917m | -9.5m/s | -3.6°C | 80.2% | 0hPa | 0V | 08:03:00 | 00:00:00 | 00:00:00 | |
| DL9RDZ-1 | 2026-08-31 12:48:01 | 63.88273 | -22.32690 | 245° | 24km/h | 2008m | -9.0m/s | -4.0°C | 84.1% | 0hPa | 0V | 08:03:00 | 00:00:00 | 00:00:00 | |
| DL9RDZ-1 | 2026-08-31 12:47:51 | 63.88293 | -22.32568 | 261° | 20km/h | 2108m | -9.2m/s | -4.7°C | 87.4% | 0hPa | 0V | 08:04:00 | 00:00:00 | 00:00:00 | |
| DL9RDZ-1 | 2026-08-31 12:47:40 | 63.88298 | -22.32456 | 268° | 18km/h | 2197m | -9.8m/s | -4.9°C | 85.8% | 0hPa | 0V | 08:04:00 | 00:00:00 | 00:00:00 | |
| DL9RDZ-1 | 2026-08-31 12:47:16 | 63.88318 | -22.32162 | 255° | 22km/h | 2417m | -10.4m/s | -6.0°C | 75.6% | 0hPa | 0V | 08:04:00 | 00:00:00 | 00:00:00 | |
| DL9RDZ-1 | 2026-08-31 12:47:05 | 63.88337 | -22.32027 | 255° | 22km/h | 2523m | -10.8m/s | -6.9°C | 78.3% | 0hPa | 0V | 08:05:00 | 00:00:00 | 00:00:00 | |
| DL9RDZ-1 | 2026-08-31 12:46:55 | 63.88354 | -22.31898 | 252° | 22km/h | 2629m | -10.5m/s | -7.8°C | 79.9% | 0hPa | 0V | 08:05:00 | 00:00:00 | 00:00:00 | |
| DL9RDZ-1 | 2026-08-31 12:46:43 | 63.88375 | -22.31782 | 247° | 20km/h | 2740m | -11.5m/s | -8.9°C | 83.3% | 0hPa | 0V | 08:05:00 | 00:00:00 | 00:00:00 | |
| DL9RDZ-1 | 2026-08-31 12:46:33 | 63.88399 | -22.31681 | 245° | 20km/h | 2847m | -11.3m/s | -9.7°C | 85.1% | 0hPa | 0V | 08:05:00 | 00:00:00 | 00:00:00 | |
| DL9RDZ-1 | 2026-08-31 12:46:22 | 63.88426 | -22.31572 | 245° | 18km/h | 2957m | -10.8m/s | -10.2°C | 77.2% | 0hPa | 0V | 08:05:00 | 00:00:00 | 00:00:00 | |
| DL9RDZ-1 | 2026-08-31 12:46:13 | 63.88443 | -22.31487 | 248° | 15km/h | 3059m | -10.7m/s | -10.8°C | 80.6% | 0hPa | 0V | 00:00:00 | 00:00:00 | 00:00:00 | |
| DL9RDZ-1 | 2026-08-31 12:46:01 | 63.88454 | -22.31395 | 259° | 16km/h | 3172m | -11.3m/s | -10.6°C | 59.6% | 0hPa | 0V | 00:00:00 | 00:00:00 | 00:00:00 | |
| DL9RDZ-1 | 2026-08-31 12:45:50 | 63.88467 | -22.31306 | 258° | 15km/h | 3286m | -10.8m/s | -11.2°C | 64.6% | 0hPa | 0V | 00:00:00 | 00:00:00 | 00:00:00 | |
| DL9RDZ-1 | 2026-08-31 12:45:40 | 63.88478 | -22.31231 | 256° | 13km/h | 3393m | -11.5m/s | -11.8°C | 56.9% | 0hPa | 0V | 00:00:00 | 00:00:00 | 00:00:00 | |
| DL9RDZ-1 | 2026-08-31 12:45:29 | 63.88488 | -22.31145 | 255° | 15km/h | 3510m | -10.5m/s | -12.9°C | 56.8% | 0hPa | 0V | 00:00:00 | 00:00:00 | 00:00:00 | |
| DL9RDZ-1 | 2026-08-31 12:44:20 | 63.88627 | -22.30706 | 183° | 15km/h | 4251m | -11.1m/s | -18.5°C | 58.3% | 0hPa | 0V | 08:08:00 | 00:00:00 | 00:00:00 | |
| DL9RDZ-1 | 2026-08-31 12:44:09 | 63.88664 | -22.30734 | 150° | 13km/h | 4373m | -13.1m/s | -19.3°C | 75.4% | 0hPa | 0V | 08:08:00 | 00:00:00 | 00:00:00 | |
| DL9RDZ-1 | 2026-08-31 12:43:58 | 63.88697 | -22.30775 | 159° | 15km/h | 4492m | -11.5m/s | -20.4°C | 74.4% | 0hPa | 0V | 08:08:00 | 00:00:00 | 00:00:00 | |
| DL9RDZ-1 | 2026-08-31 12:43:47 | 63.88731 | -22.30789 | 169° | 11km/h | 4609m | -11.4m/s | -20.8°C | 34.5% | 0hPa | 0V | 08:08:00 | 00:00:00 | 00:00:00 | |
| DL9RDZ-1 | 2026-08-31 12:43:36 | 63.88760 | -22.30797 | 162° | 9km/h | 4730m | -12.2m/s | -21.7°C | 35.1% | 0hPa | 0V | 08:09:00 | 00:00:00 | 00:00:00 | |
| DL9RDZ-1 | 2026-08-31 12:43:27 | 63.88780 | -22.30813 | 151° | 9km/h | 4845m | -12.0m/s | -22.7°C | 35.2% | 0hPa | 0V | 08:09:00 | 00:00:00 | 00:00:00 | |
| DL9RDZ-1 | 2026-08-31 12:43:16 | 63.88800 | -22.30838 | 141° | 9km/h | 4957m | -12.2m/s | -23.2°C | 39.9% | 0hPa | 0V | 08:09:00 | 00:00:00 | 00:00:00 | |
| DL9RDZ-1 | 2026-08-31 12:43:05 | 63.88824 | -22.30880 | 153° | 11km/h | 5079m | -11.9m/s | -24.3°C | 44.0% | 0hPa | 0V | 08:09:00 | 00:00:00 | 00:00:00 | |
| DL9RDZ-1 | 2026-08-31 12:42:54 | 63.88850 | -22.30920 | 136° | 11km/h | 5202m | -12.2m/s | -25.2°C | 45.0% | 0hPa | 0V | 08:09:00 | 00:00:00 | 00:00:00 | |
| DL9RDZ-1 | 2026-08-31 12:42:44 | 63.88866 | -22.30964 | 119° | 9km/h | 5318m | -10.4m/s | -26.1°C | 43.7% | 0hPa | 0V | 08:09:00 | 00:00:00 | 00:00:00 | |
| DL9RDZ-1 | 2026-08-31 12:42:34 | 63.88875 | -22.31014 | 98° | 11km/h | 5427m | -12.0m/s | -26.7°C | 38.9% | 0hPa | 0V | 08:09:00 | 00:00:00 | 00:00:00 | |
| DL9RDZ-1 | 2026-08-31 12:42:23 | 63.88877 | -22.31095 | 93° | 15km/h | 5553m | -11.6m/s | -27.3°C | 35.5% | 0hPa | 0V | 08:09:00 | 00:00:00 | 00:00:00 | |
| DL9RDZ-1 | 2026-08-31 12:42:12 | 63.88874 | -22.31199 | 78° | 18km/h | 5679m | -12.3m/s | -28.3°C | 38.9% | 0hPa | 0V | 08:09:00 | 00:00:00 | 00:00:00 | |
| DL9RDZ-1 | 2026-08-31 12:42:01 | 63.88864 | -22.31304 | 72° | 15km/h | 5804m | -12.6m/s | -29.3°C | 30.7% | 0hPa | 0V | 08:10:00 | 00:00:00 | 00:00:00 | |
| DL9RDZ-1 | 2026-08-31 12:41:50 | 63.88847 | -22.31407 | 69° | 16km/h | 5933m | -12.1m/s | -30.4°C | 32.5% | 0hPa | 0V | 08:10:00 | 00:00:00 | 00:00:00 | |
| DL9RDZ-1 | 2026-08-31 12:41:39 | 63.88828 | -22.31510 | 59° | 16km/h | 6060m | -11.1m/s | -31.6°C | 35.0% | 0hPa | 0V | 08:10:00 | 00:00:00 | 00:00:00 | |
| DL9RDZ-1 | 2026-08-31 12:41:29 | 63.88810 | -22.31598 | 60° | 15km/h | 6176m | -12.6m/s | -32.6°C | 36.2% | 0hPa | 0V | 08:10:00 | 00:00:00 | 00:00:00 | |
| DL9RDZ-1 | 2026-08-31 12:41:18 | 63.88790 | -22.31684 | 70° | 15km/h | 6306m | -12.5m/s | -33.8°C | 45.0% | 0hPa | 0V | 08:10:00 | 00:00:00 | 00:00:00 | |
| DL9RDZ-1 | 2026-08-31 12:41:07 | 63.88778 | -22.31768 | 70° | 15km/h | 6435m | -12.9m/s | -35.0°C | 52.8% | 0hPa | 0V | 08:11:00 | 00:00:00 | 00:00:00 | |
| DL9RDZ-1 | 2026-08-31 12:40:57 | 63.88772 | -22.31839 | 94° | 13km/h | 6552m | -11.7m/s | -36.0°C | 53.5% | 0hPa | 0V | 08:11:00 | 00:00:00 | 00:00:00 | |
| DL9RDZ-1 | 2026-08-31 12:40:46 | 63.88781 | -22.31913 | 110° | 13km/h | 6687m | -12.6m/s | -37.0°C | 48.9% | 0hPa | 0V | 08:11:00 | 00:00:00 | 00:00:00 | |
| DL9RDZ-1 | 2026-08-31 12:40:35 | 63.88803 | -22.31991 | 129° | 18km/h | 6817m | -12.3m/s | -37.7°C | 38.3% | 0hPa | 0V | 08:11:00 | 00:00:00 | 00:00:00 | |
| DL9RDZ-1 | 2026-08-31 12:40:25 | 63.88837 | -22.32056 | 144° | 20km/h | 6935m | -12.4m/s | -38.4°C | 30.8% | 0hPa | 0V | 08:11:00 | 00:00:00 | 00:00:00 | |
| DL9RDZ-1 | 2026-08-31 12:40:14 | 63.88889 | -22.32104 | 172° | 20km/h | 7058m | -12.2m/s | -39.1°C | 21.6% | 0hPa | 0V | 08:12:00 | 00:00:00 | 00:00:00 | |
| DL9RDZ-1 | 2026-08-31 12:40:04 | 63.88957 | -22.32108 | 184° | 29km/h | 7173m | -12.2m/s | -39.6°C | 22.2% | 0hPa | 0V | 08:12:00 | 00:00:00 | 00:00:00 | |
| DL9RDZ-1 | 2026-08-31 12:39:54 | 63.89039 | -22.32084 | 191° | 35km/h | 7292m | -12.7m/s | -40.4°C | 25.2% | 0hPa | 0V | 08:12:00 | 00:00:00 | 00:00:00 | |
| DL9RDZ-1 | 2026-08-31 12:39:43 | 63.89147 | -22.32040 | 193° | 42km/h | 7424m | -12.0m/s | -41.1°C | 25.6% | 0hPa | 0V | 08:12:00 | 00:00:00 | 00:00:00 | |
| DL9RDZ-1 | 2026-08-31 12:39:34 | 63.89263 | -22.31989 | 191° | 51km/h | 7545m | -13.2m/s | -41.7°C | 25.5% | 0hPa | 0V | 08:12:00 | 00:00:00 | 00:00:00 | |
| DL9RDZ-1 | 2026-08-31 12:39:22 | 63.89406 | -22.31918 | 193° | 51km/h | 7680m | -13.8m/s | -42.5°C | 31.6% | 0hPa | 0V | 08:13:00 | 00:00:00 | 00:00:00 | |
| DL9RDZ-1 | 2026-08-31 12:39:11 | 63.89551 | -22.31861 | 190° | 55km/h | 7814m | -12.0m/s | -43.2°C | 34.1% | 0hPa | 0V | 08:13:00 | 00:00:00 | 00:00:00 | |
| DL9RDZ-1 | 2026-08-31 12:39:01 | 63.89690 | -22.31818 | 189° | 55km/h | 7934m | -13.4m/s | -43.9°C | 30.7% | 0hPa | 0V | 08:13:00 | 00:00:00 | 00:00:00 | |
| DL9RDZ-1 | 2026-08-31 12:38:50 | 63.89854 | -22.31769 | 190° | 62km/h | 8067m | -12.6m/s | -44.5°C | 29.1% | 0hPa | 0V | 08:13:00 | 00:00:00 | 00:00:00 | |
| DL9RDZ-1 | 2026-08-31 12:38:29 | 63.90196 | -22.31635 | 192° | 68km/h | 8326m | -13.0m/s | -45.8°C | 33.8% | 0hPa | 0V | 08:14:00 | 00:00:00 | 00:00:00 | |
| DL9RDZ-1 | 2026-08-31 12:38:18 | 63.90389 | -22.31540 | 194° | 71km/h | 8468m | -13.3m/s | -46.4°C | 43.2% | 0hPa | 0V | 08:14:00 | 00:00:00 | 00:00:00 | |
| DL9RDZ-1 | 2026-08-31 12:38:07 | 63.90582 | -22.31437 | 195° | 71km/h | 8607m | -13.8m/s | -46.9°C | 39.2% | 0hPa | 0V | 08:14:00 | 00:00:00 | 00:00:00 | |
| DL9RDZ-1 | 2026-08-31 12:37:57 | 63.90758 | -22.31338 | 194° | 73km/h | 8739m | -14.0m/s | -47.6°C | 41.9% | 0hPa | 0V | 08:14:00 | 00:00:00 | 00:00:00 | |
| DL9RDZ-1 | 2026-08-31 12:37:46 | 63.90956 | -22.31234 | 194° | 71km/h | 8884m | -13.4m/s | -48.7°C | 41.2% | 0hPa | 0V | 08:15:00 | 00:00:00 | 00:00:00 | |
| DL9RDZ-1 | 2026-08-31 12:37:36 | 63.91133 | -22.31147 | 192° | 71km/h | 9021m | -15.0m/s | -49.5°C | 38.7% | 0hPa | 0V | 08:15:00 | 00:00:00 | 00:00:00 | |
| DL9RDZ-1 | 2026-08-31 12:37:25 | 63.91329 | -22.31047 | 194° | 71km/h | 9177m | -15.3m/s | -50.5°C | 38.2% | 0hPa | 0V | 08:15:00 | 00:00:00 | 00:00:00 | |
| DL9RDZ-1 | 2026-08-31 12:37:15 | 63.91499 | -22.30949 | 197° | 69km/h | 9317m | -14.8m/s | -51.5°C | 38.7% | 0hPa | 0V | 08:15:00 | 00:00:00 | 00:00:00 | |
| DL9RDZ-1 | 2026-08-31 12:37:05 | 63.91659 | -22.30868 | 193° | 62km/h | 9447m | -13.7m/s | -52.1°C | 32.1% | 0hPa | 0V | 08:15:00 | 00:00:00 | 00:00:00 | |
| DL9RDZ-1 | 2026-08-31 12:36:55 | 63.91829 | -22.30809 | 188° | 62km/h | 9598m | -14.5m/s | -52.1°C | 25.1% | 0hPa | 0V | 08:15:00 | 00:00:00 | 00:00:00 | |
| DL9RDZ-1 | 2026-08-31 12:36:33 | 63.92110 | -22.30745 | 188° | 38km/h | 9878m | -13.6m/s | -51.1°C | 8.9% | 0hPa | 0V | 08:15:00 | 00:00:00 | 00:00:00 | |
| DL9RDZ-1 | 2026-08-31 12:36:23 | 63.92201 | -22.30744 | 177° | 35km/h | 10008m | -13.3m/s | -51.0°C | 6.3% | 0hPa | 0V | 08:15:00 | 00:00:00 | 00:00:00 | |
| DL9RDZ-1 | 2026-08-31 12:36:13 | 63.92282 | -22.30763 | 166° | 29km/h | 10145m | -13.4m/s | -49.3°C | 4.3% | 0hPa | 0V | 08:15:00 | 00:00:00 | 00:00:00 | |
| DL9RDZ-1 | 2026-08-31 12:36:02 | 63.92360 | -22.30845 | 154° | 35km/h | 10294m | -13.4m/s | -48.6°C | 3.2% | 0hPa | 0V | 08:16:00 | 00:00:00 | 00:00:00 | |
| DL9RDZ-1 | 2026-08-31 12:35:52 | 63.92434 | -22.30908 | 168° | 27km/h | 10429m | -14.7m/s | -47.4°C | 2.3% | 0hPa | 0V | 08:16:00 | 00:00:00 | 00:00:00 | |
| DL9RDZ-1 | 2026-08-31 12:35:41 | 63.92503 | -22.30954 | 157° | 26km/h | 10578m | -13.4m/s | -46.9°C | 2.1% | 0hPa | 0V | 08:16:00 | 00:00:00 | 00:00:00 | |
| DL9RDZ-1 | 2026-08-31 12:35:20 | 63.92610 | -22.31112 | 136° | 22km/h | 10865m | -14.4m/s | -44.8°C | 1.6% | 0hPa | 0V | 08:16:00 | 00:00:00 | 00:00:00 | |
| DL9RDZ-1 | 2026-08-31 12:35:09 | 63.92645 | -22.31223 | 128° | 24km/h | 11015m | -14.1m/s | -44.4°C | 1.3% | 0hPa | 0V | 08:17:00 | 00:00:00 | 00:00:00 | |
| DL9RDZ-1 | 2026-08-31 12:34:59 | 63.92676 | -22.31302 | 138° | 15km/h | 11154m | -12.8m/s | -44.8°C | 1.3% | 0hPa | 0V | 08:17:00 | 00:00:00 | 00:00:00 | |
| DL9RDZ-1 | 2026-08-31 12:34:49 | 63.92697 | -22.31356 | 113° | 13km/h | 11292m | -13.5m/s | -45.0°C | 1.2% | 0hPa | 0V | 08:17:00 | 00:00:00 | 00:00:00 | |
| DL9RDZ-1 | 2026-08-31 12:34:39 | 63.92702 | -22.31435 | 92° | 16km/h | 11429m | -15.4m/s | -45.4°C | 1.3% | 0hPa | 0V | 08:17:00 | 00:00:00 | 00:00:00 | |
| DL9RDZ-1 | 2026-08-31 12:34:21 | 63.92716 | -22.31667 | 102° | 31km/h | 11672m | -14.4m/s | -46.0°C | 1.3% | 0hPa | 0V | 08:18:00 | 00:00:00 | 00:00:00 | |
| DL9RDZ-1 | 2026-08-31 12:34:11 | 63.92732 | -22.31845 | 101° | 31km/h | 11818m | -14.9m/s | -45.9°C | 1.4% | 0hPa | 0V | 08:18:00 | 00:00:00 | 00:00:00 | |
| DL9RDZ-1 | 2026-08-31 12:33:58 | 63.92768 | -22.32051 | 126° | 29km/h | 12001m | -14.3m/s | -46.2°C | 1.4% | 0hPa | 0V | 08:18:00 | 00:00:00 | 00:00:00 | |
| DL9RDZ-1 | 2026-08-31 12:33:48 | 63.92791 | -22.32197 | 97° | 27km/h | 12149m | -16.5m/s | -44.1°C | 1.1% | 0hPa | 0V | 08:18:00 | 00:00:00 | 00:00:00 | |
| DL9RDZ-1 | 2026-08-31 12:33:37 | 63.92795 | -22.32376 | 95° | 29km/h | 12306m | -14.5m/s | -44.0°C | 1.0% | 0hPa | 0V | 08:18:00 | 00:00:00 | 00:00:00 | |
| DL9RDZ-1 | 2026-08-31 12:33:26 | 63.92806 | -22.32580 | 99° | 38km/h | 12465m | -15.0m/s | -44.4°C | 1.0% | 0hPa | 0V | 08:19:00 | 00:00:00 | 00:00:00 | |
| DL9RDZ-1 | 2026-08-31 12:33:17 | 63.92826 | -22.32792 | 107° | 35km/h | 12607m | -15.9m/s | -44.5°C | 1.0% | 0hPa | 0V | 08:19:00 | 00:00:00 | 00:00:00 | |
| DL9RDZ-1 | 2026-08-31 12:33:06 | 63.92847 | -22.32960 | 100° | 26km/h | 12751m | -15.5m/s | -44.9°C | 1.0% | 0hPa | 0V | 08:19:00 | 00:00:00 | 00:00:00 | |
| DL9RDZ-1 | 2026-08-31 12:32:56 | 63.92860 | -22.33087 | 116° | 22km/h | 12894m | -14.6m/s | -45.3°C | 1.0% | 0hPa | 0V | 08:19:00 | 00:00:00 | 00:00:00 | |
| DL9RDZ-1 | 2026-08-31 12:32:48 | 63.92890 | -22.33189 | 139° | 20km/h | 13037m | -14.3m/s | -45.6°C | 1.0% | 0hPa | 0V | 08:19:00 | 00:00:00 | 00:00:00 | |
| DL9RDZ-1 | 2026-08-31 12:32:35 | 63.92917 | -22.33256 | 105° | 11km/h | 13198m | -15.2m/s | -44.8°C | 1.0% | 0hPa | 0V | 08:20:00 | 00:00:00 | 00:00:00 | |
| DL9RDZ-1 | 2026-08-31 12:32:26 | 63.92914 | -22.33342 | 79° | 20km/h | 13347m | -13.3m/s | -44.3°C | 0.9% | 0hPa | 0V | 08:20:00 | 00:00:00 | 00:00:00 | |
| DL9RDZ-1 | 2026-08-31 12:32:15 | 63.92907 | -22.33476 | 92° | 29km/h | 13500m | -15.4m/s | -44.5°C | 1.0% | 0hPa | 0V | 08:20:00 | 00:00:00 | 00:00:00 | |
| DL9RDZ-1 | 2026-08-31 12:32:04 | 63.92915 | -22.33681 | 94° | 31km/h | 13664m | -14.3m/s | -44.0°C | 0.9% | 0hPa | 0V | 08:20:00 | 00:00:00 | 00:00:00 | |
| DL9RDZ-1 | 2026-08-31 12:31:53 | 63.92927 | -22.33827 | 111° | 16km/h | 13827m | -15.7m/s | -43.7°C | 0.9% | 0hPa | 0V | 08:20:00 | 00:00:00 | 00:00:00 | |
| DL9RDZ-1 | 2026-08-31 12:31:31 | 63.92885 | -22.33934 | 35° | 26km/h | 14170m | -16.5m/s | -44.3°C | 0.9% | 0hPa | 0V | 08:20:00 | 00:00:00 | 00:00:00 | |
| DL9RDZ-1 | 2026-08-31 12:31:20 | 63.92819 | -22.34048 | 47° | 33km/h | 14349m | -17.8m/s | -44.6°C | 0.9% | 0hPa | 0V | 08:20:00 | 00:00:00 | 00:00:00 | |
| DL9RDZ-1 | 2026-08-31 12:31:10 | 63.92774 | -22.34204 | 63° | 35km/h | 14517m | -19.0m/s | -44.9°C | 0.9% | 0hPa | 0V | 08:20:00 | 00:00:00 | 00:00:00 | |
| DL9RDZ-1 | 2026-08-31 12:31:00 | 63.92745 | -22.34388 | 79° | 31km/h | 14680m | -16.6m/s | -44.7°C | 0.9% | 0hPa | 0V | 08:20:00 | 00:00:00 | 00:00:00 | |
| DL9RDZ-1 | 2026-08-31 12:30:49 | 63.92749 | -22.34565 | 106° | 27km/h | 14851m | -15.6m/s | -44.6°C | 0.8% | 0hPa | 0V | 00:00:00 | 00:00:00 | 00:00:00 | |
| DL9RDZ-1 | 2026-08-31 12:30:39 | 63.92772 | -22.34716 | 115° | 20km/h | 15027m | -16.5m/s | -45.0°C | 0.9% | 0hPa | 0V | 00:00:00 | 00:00:00 | 00:00:00 | |
| DL9RDZ-1 | 2026-08-31 12:30:27 | 63.92779 | -22.34823 | 81° | 18km/h | 15204m | -15.6m/s | -45.3°C | 0.9% | 0hPa | 0V | 00:00:00 | 00:00:00 | 00:00:00 | |
| DL9RDZ-1 | 2026-08-31 12:30:17 | 63.92752 | -22.34950 | 60° | 26km/h | 15381m | -17.3m/s | -45.0°C | 0.8% | 0hPa | 0V | 00:00:00 | 00:00:00 | 00:00:00 | |
| DL9RDZ-1 | 2026-08-31 12:29:28 | 63.92615 | -22.35493 | 71° | 31km/h | 16177m | -16.8m/s | -46.4°C | 0.9% | 0hPa | 0V | 08:22:00 | 00:00:00 | 00:00:00 | |
| DL9RDZ-1 | 2026-08-31 12:29:18 | 63.92599 | -22.35680 | 81° | 26km/h | 16360m | -17.6m/s | -45.0°C | 0.8% | 0hPa | 0V | 08:22:00 | 00:00:00 | 00:00:00 | |
| DL9RDZ-1 | 2026-08-31 12:29:06 | 63.92574 | -22.35821 | 60° | 27km/h | 16553m | -15.7m/s | -45.2°C | 0.8% | 0hPa | 0V | 00:00:00 | 00:00:00 | 00:00:00 | |
| DL9RDZ-1 | 2026-08-31 12:28:55 | 63.92538 | -22.35998 | 72° | 35km/h | 16736m | -18.0m/s | -45.8°C | 0.8% | 0hPa | 0V | 00:00:00 | 00:00:00 | 00:00:00 | |
| DL9RDZ-1 | 2026-08-31 12:28:44 | 63.92514 | -22.36217 | 79° | 37km/h | 16926m | -17.4m/s | -46.5°C | 0.9% | 0hPa | 0V | 00:00:00 | 00:00:00 | 00:00:00 | |
| DL9RDZ-1 | 2026-08-31 12:28:33 | 63.92507 | -22.36433 | 88° | 27km/h | 17116m | -18.4m/s | -46.8°C | 0.9% | 0hPa | 0V | 00:00:00 | 00:00:00 | 00:00:00 | |
| DL9RDZ-1 | 2026-08-31 12:28:08 | 63.92455 | -22.36632 | 34° | 26km/h | 17572m | -17.4m/s | -47.3°C | 0.9% | 0hPa | 0V | 00:00:00 | 00:00:00 | 00:00:00 | |
| DL9RDZ-1 | 2026-08-31 12:27:57 | 63.92414 | -22.36764 | 79° | 27km/h | 17768m | -15.9m/s | -47.6°C | 1.0% | 0hPa | 0V | 00:00:00 | 00:00:00 | 00:00:00 | |
| DL9RDZ-1 | 2026-08-31 12:27:46 | 63.92418 | -22.36935 | 107° | 22km/h | 17949m | -18.7m/s | -47.3°C | 0.9% | 0hPa | 0V | 00:00:00 | 00:00:00 | 00:00:00 | |
| DL9RDZ-1 | 2026-08-31 12:27:36 | 63.92415 | -22.37024 | 71° | 15km/h | 18127m | -20.9m/s | -47.2°C | 0.9% | 0hPa | 0V | 00:00:00 | 00:00:00 | 00:00:00 | |
| DL9RDZ-1 | 2026-08-31 12:27:24 | 63.92402 | -22.37130 | 70° | 15km/h | 18342m | -17.3m/s | -47.3°C | 0.9% | 0hPa | 0V | 00:00:00 | 00:00:00 | 00:00:00 | |
| DL9RDZ-1 | 2026-08-31 12:25:17 | 63.91888 | -22.38354 | 58° | 31km/h | 20825m | -20.6m/s | -47.9°C | 0.8% | 0hPa | 0V | 00:00:00 | 00:00:00 | 00:00:00 | |
| DL9RDZ-1 | 2026-08-31 12:24:24 | 63.91763 | -22.39138 | 88° | 22km/h | 21972m | -22.1m/s | -45.7°C | 0.8% | 0hPa | 0V | 08:27:00 | 00:00:00 | 00:00:00 | |
| DL9RDZ-1 | 2026-08-31 12:24:14 | 63.91761 | -22.39198 | 9° | 11km/h | 22192m | -24.8m/s | -46.3°C | 0.8% | 0hPa | 0V | 08:27:00 | 00:00:00 | 00:00:00 | |
| DL9RDZ-1 | 2026-08-31 12:24:03 | 63.91704 | -22.39216 | 21° | 27km/h | 22434m | -20.1m/s | -46.8°C | 0.8% | 0hPa | 0V | 08:28:00 | 00:00:00 | 00:00:00 | |
| DL9RDZ-1 | 2026-08-31 12:23:52 | 63.91633 | -22.39317 | 45° | 27km/h | 22679m | -23.8m/s | -47.9°C | 0.8% | 0hPa | 0V | 08:28:00 | 00:00:00 | 00:00:00 | |
| DL9RDZ-1 | 2026-08-31 12:23:41 | 63.91582 | -22.39429 | 51° | 26km/h | 22940m | -21.9m/s | -48.1°C | 0.9% | 0hPa | 0V | 08:28:00 | 00:00:00 | 00:00:00 | |
| DL9RDZ-1 | 2026-08-31 12:23:30 | 63.91550 | -22.39556 | 49° | 16km/h | 23175m | -22.4m/s | -47.7°C | 0.8% | 0hPa | 0V | 08:28:00 | 00:00:00 | 00:00:00 | |
| DL9RDZ-1 | 2026-08-31 12:23:20 | 63.91511 | -22.39603 | 33° | 24km/h | 23402m | -25.3m/s | -47.5°C | 0.8% | 0hPa | 0V | 08:28:00 | 00:00:00 | 00:00:00 | |
| DL9RDZ-1 | 2026-08-31 12:23:09 | 63.91463 | -22.39683 | 45° | 13km/h | 23656m | -24.9m/s | -46.9°C | 0.8% | 0hPa | 0V | 00:00:00 | 00:00:00 | 00:00:00 | |
| DL9RDZ-1 | 2026-08-31 12:20:36 | 63.90935 | -22.40565 | 129° | 7km/h | 25825m | 5.1m/s | -48.1°C | 0.8% | 0hPa | 0V | 00:00:00 | 00:00:00 | 00:00:00 | |
| DL9RDZ-1 | 2026-08-31 12:20:19 | 63.90943 | -22.40753 | 90° | 13km/h | 25722m | 5.4m/s | -47.8°C | 0.8% | 0hPa | 0V | 00:00:00 | 00:00:00 | 00:00:00 | |
| DL9RDZ-1 | 2026-08-31 12:17:27 | 63.90283 | -22.42301 | 107° | 18km/h | 24676m | 6.3m/s | -46.5°C | 0.8% | 0hPa | 0V | 00:00:00 | 00:00:00 | 00:00:00 | |
| DL9RDZ-1 | 2026-08-31 12:17:16 | 63.90249 | -22.42414 | 72° | 22km/h | 24609m | 6.0m/s | -46.6°C | 0.8% | 0hPa | 0V | 00:00:00 | 00:00:00 | 00:00:00 | |
| DL9RDZ-1 | 2026-08-31 12:17:05 | 63.90223 | -22.42530 | 41° | 35km/h | 24545m | 4.7m/s | -46.5°C | 0.8% | 0hPa | 0V | 00:00:00 | 00:00:00 | 00:00:00 | |
| DL9RDZ-1 | 2026-08-31 12:16:55 | 63.90177 | -22.42613 | 36° | 13km/h | 24486m | 5.7m/s | -46.3°C | 0.8% | 0hPa | 0V | 00:00:00 | 00:00:00 | 00:00:00 | |
| DL9RDZ-1 | 2026-08-31 12:16:45 | 63.90140 | -22.42691 | 37° | 22km/h | 24426m | 4.7m/s | -46.3°C | 0.8% | 0hPa | 0V | 00:00:00 | 00:00:00 | 00:00:00 | |
| DL9RDZ-1 | 2026-08-31 12:16:34 | 63.90078 | -22.42779 | 25° | 26km/h | 24360m | 7.0m/s | -46.3°C | 0.8% | 0hPa | 0V | 00:00:00 | 00:00:00 | 00:00:00 | |
| DL9RDZ-1 | 2026-08-31 12:15:26 | 63.89698 | -22.43113 | 30° | 16km/h | 23947m | 6.2m/s | -46.8°C | 0.8% | 0hPa | 0V | 00:00:00 | 00:00:00 | 00:00:00 | |
| DL9RDZ-1 | 2026-08-31 12:15:17 | 63.89664 | -22.43151 | 61° | 13km/h | 23888m | 7.1m/s | -47.0°C | 0.8% | 0hPa | 0V | 00:00:00 | 00:00:00 | 00:00:00 | |
| DL9RDZ-1 | 2026-08-31 12:15:05 | 63.89638 | -22.43200 | 17° | 11km/h | 23820m | 6.5m/s | -47.2°C | 0.8% | 0hPa | 0V | 00:00:00 | 00:00:00 | 00:00:00 | |
| DL9RDZ-1 | 2026-08-31 12:14:55 | 63.89610 | -22.43263 | 46° | 16km/h | 23761m | 5.8m/s | -47.0°C | 0.8% | 0hPa | 0V | 00:00:00 | 00:00:00 | 00:00:00 | |
| DL9RDZ-1 | 2026-08-31 12:14:45 | 63.89577 | -22.43312 | 28° | 16km/h | 23702m | 7.2m/s | -47.2°C | 0.9% | 0hPa | 0V | 00:00:00 | 00:00:00 | 00:00:00 | |
| DL9RDZ-1 | 2026-08-31 12:14:34 | 63.89543 | -22.43374 | 45° | 22km/h | 23634m | 5.9m/s | -47.4°C | 0.8% | 0hPa | 0V | 00:00:00 | 00:00:00 | 00:00:00 | |
| DL9RDZ-1 | 2026-08-31 12:14:23 | 63.89486 | -22.43480 | 58° | 24km/h | 23566m | 5.4m/s | -47.4°C | 0.8% | 0hPa | 0V | 00:00:00 | 00:00:00 | 00:00:00 | |
| DL9RDZ-1 | 2026-08-31 12:14:12 | 63.89422 | -22.43578 | 38° | 26km/h | 23497m | 2.9m/s | -47.4°C | 0.9% | 0hPa | 0V | 00:00:00 | 00:00:00 | 00:00:00 | |
| DL9RDZ-1 | 2026-08-31 12:14:02 | 63.89363 | -22.43657 | 24° | 24km/h | 23436m | 3.9m/s | -47.2°C | 0.8% | 0hPa | 0V | 00:00:00 | 00:00:00 | 00:00:00 | |
| DL9RDZ-1 | 2026-08-31 12:13:51 | 63.89311 | -22.43735 | 34° | 20km/h | 23371m | 6.9m/s | -47.0°C | 0.8% | 0hPa | 0V | 00:00:00 | 00:00:00 | 00:00:00 | |
| DL9RDZ-1 | 2026-08-31 12:13:40 | 63.89265 | -22.43786 | 9° | 13km/h | 23304m | 4.4m/s | -46.8°C | 0.8% | 0hPa | 0V | 00:00:00 | 00:00:00 | 00:00:00 | |
| DL9RDZ-1 | 2026-08-31 12:13:30 | 63.89226 | -22.43827 | 29° | 22km/h | 23243m | 6.9m/s | -46.8°C | 0.8% | 0hPa | 0V | 00:00:00 | 00:00:00 | 00:00:00 | |
| DL9RDZ-1 | 2026-08-31 12:13:19 | 63.89199 | -22.43893 | 71° | 15km/h | 23178m | 5.2m/s | -47.1°C | 0.9% | 0hPa | 0V | 00:00:00 | 00:00:00 | 00:00:00 | |
| DL9RDZ-1 | 2026-08-31 12:13:09 | 63.89172 | -22.43991 | 60° | 31km/h | 23115m | 3.2m/s | -47.2°C | 0.8% | 0hPa | 0V | 00:00:00 | 00:00:00 | 00:00:00 | |
| DL9RDZ-1 | 2026-08-31 12:12:58 | 63.89163 | -22.44148 | 74° | 33km/h | 23040m | 7.1m/s | -47.6°C | 0.9% | 0hPa | 0V | 00:00:00 | 00:00:00 | 00:00:00 | |
| DL9RDZ-1 | 2026-08-31 12:12:48 | 63.89134 | -22.44286 | 77° | 22km/h | 22986m | 5.6m/s | -47.4°C | 0.9% | 0hPa | 0V | 00:00:00 | 00:00:00 | 00:00:00 | |
| DL9RDZ-1 | 2026-08-31 12:12:22 | 63.89037 | -22.44632 | 56° | 22km/h | 22835m | 7.1m/s | -47.7°C | 0.9% | 0hPa | 0V | 00:00:00 | 00:00:00 | 00:00:00 | |
| DL9RDZ-1 | 2026-08-31 12:12:11 | 63.88999 | -22.44753 | 36° | 26km/h | 22769m | 6.9m/s | -47.5°C | 0.9% | 0hPa | 0V | 00:00:00 | 00:00:00 | 00:00:00 | |
| DL9RDZ-1 | 2026-08-31 12:12:01 | 63.88969 | -22.44887 | 55° | 35km/h | 22710m | 5.3m/s | -47.7°C | 0.9% | 0hPa | 0V | 00:00:00 | 00:00:00 | 00:00:00 | |
| DL9RDZ-1 | 2026-08-31 12:11:50 | 63.88916 | -22.45029 | 56° | 33km/h | 22645m | 6.1m/s | -47.9°C | 0.9% | 0hPa | 0V | 00:00:00 | 00:00:00 | 00:00:00 | |
| DL9RDZ-1 | 2026-08-31 12:11:39 | 63.88850 | -22.45182 | 34° | 27km/h | 22579m | 5.7m/s | -47.6°C | 0.9% | 0hPa | 0V | 00:00:00 | 00:00:00 | 00:00:00 | |
| DL9RDZ-1 | 2026-08-31 12:11:28 | 63.88793 | -22.45297 | 35° | 26km/h | 22511m | 5.8m/s | -47.4°C | 0.9% | 0hPa | 0V | 00:00:00 | 00:00:00 | 00:00:00 | |
| DL9RDZ-1 | 2026-08-31 12:11:18 | 63.88745 | -22.45344 | 22° | 22km/h | 22454m | 6.0m/s | -47.4°C | 0.9% | 0hPa | 0V | 00:00:00 | 00:00:00 | 00:00:00 | |
| DL9RDZ-1 | 2026-08-31 12:11:07 | 63.88695 | -22.45388 | 3° | 15km/h | 22389m | 5.6m/s | -47.2°C | 0.9% | 0hPa | 0V | 00:00:00 | 00:00:00 | 00:00:00 | |
| DL9RDZ-1 | 2026-08-31 12:10:57 | 63.88671 | -22.45418 | 17° | 7km/h | 22333m | 5.4m/s | -47.4°C | 0.9% | 0hPa | 0V | 00:00:00 | 00:00:00 | 00:00:00 | |
| DL9RDZ-1 | 2026-08-31 12:10:46 | 63.88662 | -22.45454 | 115° | 9km/h | 22266m | 6.7m/s | -47.1°C | 0.9% | 0hPa | 0V | 00:00:00 | 00:00:00 | 00:00:00 | |
| DL9RDZ-1 | 2026-08-31 12:09:32 | 63.88513 | -22.46290 | 51° | 26km/h | 21822m | 5.6m/s | -47.5°C | 0.9% | 0hPa | 0V | 00:00:00 | 00:00:00 | 00:00:00 | |
| DL9RDZ-1 | 2026-08-31 12:09:20 | 63.88442 | -22.46392 | 49° | 26km/h | 21735m | 4.6m/s | -48.0°C | 0.9% | 0hPa | 0V | 00:00:00 | 00:00:00 | 00:00:00 | |
| DL9RDZ-1 | 2026-08-31 12:09:07 | 63.88371 | -22.46532 | 46° | 27km/h | 21666m | 7.0m/s | -48.2°C | 1.0% | 0hPa | 0V | 00:00:00 | 00:00:00 | 00:00:00 | |
| DL9RDZ-1 | 2026-08-31 12:08:57 | 63.88316 | -22.46629 | 30° | 33km/h | 21606m | 6.5m/s | -48.2°C | 1.0% | 0hPa | 0V | 00:00:00 | 00:00:00 | 00:00:00 | |
| DL9RDZ-1 | 2026-08-31 12:08:47 | 63.88263 | -22.46714 | 34° | 24km/h | 21547m | 6.4m/s | -47.9°C | 0.9% | 0hPa | 0V | 00:00:00 | 00:00:00 | 00:00:00 | |
| DL9RDZ-1 | 2026-08-31 12:08:36 | 63.88205 | -22.46793 | 34° | 20km/h | 21483m | 5.9m/s | -47.6°C | 0.9% | 0hPa | 0V | 00:00:00 | 00:00:00 | 00:00:00 | |
| DL9RDZ-1 | 2026-08-31 12:07:03 | 63.87997 | -22.48116 | 53° | 33km/h | 20939m | 6.0m/s | -47.7°C | 0.9% | 0hPa | 0V | 00:00:00 | 00:00:00 | 00:00:00 | |
| DL9RDZ-1 | 2026-08-31 12:06:52 | 63.87935 | -22.48282 | 40° | 37km/h | 20873m | 5.7m/s | -47.7°C | 1.0% | 0hPa | 0V | 00:00:00 | 00:00:00 | 00:00:00 | |
| DL9RDZ-1 | 2026-08-31 12:06:41 | 63.87867 | -22.48418 | 56° | 35km/h | 20809m | 6.2m/s | -47.3°C | 0.9% | 0hPa | 0V | 00:00:00 | 00:00:00 | 00:00:00 | |
| DL9RDZ-1 | 2026-08-31 12:06:30 | 63.87819 | -22.48556 | 61° | 33km/h | 20744m | 5.0m/s | -47.2°C | 0.9% | 0hPa | 0V | 00:00:00 | 00:00:00 | 00:00:00 | |
| DL9RDZ-1 | 2026-08-31 12:06:20 | 63.87776 | -22.48698 | 45° | 22km/h | 20683m | 5.8m/s | -47.3°C | 0.9% | 0hPa | 0V | 00:00:00 | 00:00:00 | 00:00:00 | |
| DL9RDZ-1 | 2026-08-31 12:06:09 | 63.87730 | -22.48844 | 51° | 26km/h | 20617m | 5.3m/s | -47.4°C | 0.9% | 0hPa | 0V | 00:00:00 | 00:00:00 | 00:00:00 | |
| DL9RDZ-1 | 2026-08-31 12:05:59 | 63.87694 | -22.48978 | 59° | 37km/h | 20557m | 5.4m/s | -47.5°C | 0.9% | 0hPa | 0V | 00:00:00 | 00:00:00 | 00:00:00 | |
| DL9RDZ-1 | 2026-08-31 12:05:48 | 63.87643 | -22.49155 | 55° | 29km/h | 20487m | 5.3m/s | -47.3°C | 0.9% | 0hPa | 0V | 00:00:00 | 00:00:00 | 00:00:00 | |
| DL9RDZ-1 | 2026-08-31 12:05:38 | 63.87584 | -22.49288 | 50° | 29km/h | 20426m | 5.6m/s | -47.5°C | 1.0% | 0hPa | 0V | 00:00:00 | 00:00:00 | 00:00:00 | |
| DL9RDZ-1 | 2026-08-31 12:05:27 | 63.87508 | -22.49438 | 47° | 37km/h | 20365m | 5.4m/s | -47.8°C | 1.0% | 0hPa | 0V | 00:00:00 | 00:00:00 | 00:00:00 | |
| DL9RDZ-1 | 2026-08-31 12:05:17 | 63.87445 | -22.49576 | 26° | 29km/h | 20308m | 5.2m/s | -47.7°C | 1.0% | 0hPa | 0V | 00:00:00 | 00:00:00 | 00:00:00 | |
| DL9RDZ-1 | 2026-08-31 12:05:06 | 63.87380 | -22.49668 | 23° | 27km/h | 20245m | 5.5m/s | -47.5°C | 1.0% | 0hPa | 0V | 00:00:00 | 00:00:00 | 00:00:00 | |
| DL9RDZ-1 | 2026-08-31 12:04:56 | 63.87327 | -22.49708 | 12° | 16km/h | 20189m | 3.9m/s | -47.9°C | 1.0% | 0hPa | 0V | 00:00:00 | 00:00:00 | 00:00:00 | |
| DL9RDZ-1 | 2026-08-31 12:04:45 | 63.87291 | -22.49753 | 40° | 13km/h | 20128m | 5.1m/s | -47.8°C | 1.0% | 0hPa | 0V | 00:00:00 | 00:00:00 | 00:00:00 | |
| DL9RDZ-1 | 2026-08-31 12:04:36 | 63.87260 | -22.49815 | 44° | 18km/h | 20071m | 4.8m/s | -47.5°C | 1.0% | 0hPa | 0V | 00:00:00 | 00:00:00 | 00:00:00 | |
| DL9RDZ-1 | 2026-08-31 12:04:24 | 63.87219 | -22.49900 | 42° | 22km/h | 20012m | 6.2m/s | -47.5°C | 0.9% | 0hPa | 0V | 00:00:00 | 00:00:00 | 00:00:00 | |
| DL9RDZ-1 | 2026-08-31 12:04:14 | 63.87184 | -22.50000 | 59° | 29km/h | 19961m | 4.2m/s | -47.5°C | 1.0% | 0hPa | 0V | 00:00:00 | 00:00:00 | 00:00:00 | |
| DL9RDZ-1 | 2026-08-31 12:04:03 | 63.87126 | -22.50150 | 43° | 29km/h | 19901m | 4.4m/s | -47.2°C | 1.0% | 0hPa | 0V | 00:00:00 | 00:00:00 | 00:00:00 | |
| DL9RDZ-1 | 2026-08-31 12:03:52 | 63.87064 | -22.50276 | 26° | 29km/h | 19841m | 4.7m/s | -47.2°C | 0.9% | 0hPa | 0V | 00:00:00 | 00:00:00 | 00:00:00 | |
| DL9RDZ-1 | 2026-08-31 12:03:42 | 63.87022 | -22.50342 | 18° | 16km/h | 19786m | 6.6m/s | -47.7°C | 1.0% | 0hPa | 0V | 00:00:00 | 00:00:00 | 00:00:00 | |
| DL9RDZ-1 | 2026-08-31 12:03:31 | 63.86980 | -22.50425 | 49° | 18km/h | 19726m | 5.1m/s | -48.0°C | 1.0% | 0hPa | 0V | 00:00:00 | 00:00:00 | 00:00:00 | |
| DL9RDZ-1 | 2026-08-31 12:03:20 | 63.86943 | -22.50509 | 63° | 26km/h | 19665m | 6.2m/s | -48.4°C | 1.1% | 0hPa | 0V | 00:00:00 | 00:00:00 | 00:00:00 | |
| DL9RDZ-1 | 2026-08-31 12:03:09 | 63.86903 | -22.50602 | 60° | 27km/h | 19605m | 4.4m/s | -48.4°C | 1.0% | 0hPa | 0V | 00:00:00 | 00:00:00 | 00:00:00 | |
| DL9RDZ-1 | 2026-08-31 12:01:48 | 63.86658 | -22.50939 | 61° | 15km/h | 19129m | 6.3m/s | -46.1°C | 0.9% | 0hPa | 0V | 00:00:00 | 00:00:00 | 00:00:00 | |
| DL9RDZ-1 | 2026-08-31 12:01:09 | 63.86653 | -22.51288 | 83° | 24km/h | 18908m | 5.9m/s | -45.8°C | 0.9% | 0hPa | 0V | 00:00:00 | 00:00:00 | 00:00:00 | |
| DL9RDZ-1 | 2026-08-31 12:00:48 | 63.86617 | -22.51557 | 66° | 22km/h | 18784m | 5.8m/s | -46.5°C | 1.0% | 0hPa | 0V | 00:00:00 | 00:00:00 | 00:00:00 | |
| DL9RDZ-1 | 2026-08-31 12:00:38 | 63.86580 | -22.51680 | 53° | 18km/h | 18722m | 3.9m/s | -46.8°C | 1.0% | 0hPa | 0V | 00:00:00 | 00:00:00 | 00:00:00 | |
| DL9RDZ-1 | 2026-08-31 12:00:27 | 63.86518 | -22.51789 | 35° | 27km/h | 18661m | 4.9m/s | -46.7°C | 1.0% | 0hPa | 0V | 00:00:00 | 00:00:00 | 00:00:00 | |
| DL9RDZ-1 | 2026-08-31 12:00:17 | 63.86457 | -22.51862 | 30° | 24km/h | 18607m | 5.0m/s | -46.7°C | 1.0% | 0hPa | 0V | 00:00:00 | 00:00:00 | 00:00:00 | |
| DL9RDZ-1 | 2026-08-31 12:00:05 | 63.86410 | -22.51930 | 29° | 18km/h | 18546m | 5.0m/s | -46.6°C | 0.9% | 0hPa | 0V | 00:00:00 | 00:00:00 | 00:00:00 | |
| DL9RDZ-1 | 2026-08-31 11:59:55 | 63.86369 | -22.51966 | 16° | 13km/h | 18486m | 4.1m/s | -46.7°C | 1.0% | 0hPa | 0V | 00:00:00 | 00:00:00 | 00:00:00 | |
| DL9RDZ-1 | 2026-08-31 11:59:43 | 63.86356 | -22.52000 | 63° | 9km/h | 18421m | 5.9m/s | -47.1°C | 1.0% | 0hPa | 0V | 00:00:00 | 00:00:00 | 00:00:00 | |
| DL9RDZ-1 | 2026-08-31 11:59:33 | 63.86338 | -22.52079 | 62° | 11km/h | 18360m | 6.3m/s | -47.1°C | 1.0% | 0hPa | 0V | 00:00:00 | 00:00:00 | 00:00:00 | |
| DL9RDZ-1 | 2026-08-31 11:59:21 | 63.86316 | -22.52165 | 56° | 15km/h | 18299m | 6.4m/s | -47.0°C | 1.0% | 0hPa | 0V | 00:00:00 | 00:00:00 | 00:00:00 | |
| DL9RDZ-1 | 2026-08-31 11:59:12 | 63.86309 | -22.52242 | 87° | 18km/h | 18245m | 4.4m/s | -47.1°C | 1.0% | 0hPa | 0V | 00:00:00 | 00:00:00 | 00:00:00 | |
| DL9RDZ-1 | 2026-08-31 11:59:01 | 63.86310 | -22.52358 | 99° | 20km/h | 18190m | 4.4m/s | -47.1°C | 1.0% | 0hPa | 0V | 00:00:00 | 00:00:00 | 00:00:00 | |
| DL9RDZ-1 | 2026-08-31 11:58:50 | 63.86299 | -22.52446 | 68° | 20km/h | 18129m | 4.7m/s | -47.2°C | 1.0% | 0hPa | 0V | 00:00:00 | 00:00:00 | 00:00:00 | |
| DL9RDZ-1 | 2026-08-31 11:58:40 | 63.86282 | -22.52536 | 76° | 13km/h | 18068m | 4.4m/s | -47.1°C | 1.0% | 0hPa | 0V | 00:00:00 | 00:00:00 | 00:00:00 | |
| DL9RDZ-1 | 2026-08-31 11:58:29 | 63.86277 | -22.52627 | 95° | 13km/h | 18010m | 5.5m/s | -47.0°C | 1.0% | 0hPa | 0V | 00:00:00 | 00:00:00 | 00:00:00 | |
| DL9RDZ-1 | 2026-08-31 11:58:06 | 63.86304 | -22.52945 | 100° | 35km/h | 17893m | 4.4m/s | -47.3°C | 1.0% | 0hPa | 0V | 00:00:00 | 00:00:00 | 00:00:00 | |
| DL9RDZ-1 | 2026-08-31 11:57:56 | 63.86314 | -22.53132 | 82° | 31km/h | 17841m | 5.8m/s | -47.3°C | 1.0% | 0hPa | 0V | 00:00:00 | 00:00:00 | 00:00:00 | |
| DL9RDZ-1 | 2026-08-31 11:57:46 | 63.86310 | -22.53306 | 90° | 27km/h | 17788m | 5.9m/s | -47.3°C | 1.0% | 0hPa | 0V | 00:00:00 | 00:00:00 | 00:00:00 | |
| DL9RDZ-1 | 2026-08-31 11:57:11 | 63.86211 | -22.53773 | 33° | 18km/h | 17587m | 4.6m/s | -47.0°C | 1.0% | 0hPa | 0V | 00:00:00 | 00:00:00 | 00:00:00 | |
| DL9RDZ-1 | 2026-08-31 11:56:57 | 63.86152 | -22.53843 | 37° | 18km/h | 17520m | 5.3m/s | -46.9°C | 1.0% | 0hPa | 0V | 00:00:00 | 00:00:00 | 00:00:00 | |
| DL9RDZ-1 | 2026-08-31 11:56:46 | 63.86111 | -22.53875 | 26° | 11km/h | 17457m | 6.4m/s | -46.5°C | 1.0% | 0hPa | 0V | 00:00:00 | 00:00:00 | 00:00:00 | |
| DL9RDZ-1 | 2026-08-31 11:56:36 | 63.86079 | -22.53918 | 23° | 15km/h | 17397m | 6.0m/s | -46.3°C | 1.0% | 0hPa | 0V | 00:00:00 | 00:00:00 | 00:00:00 | |
| DL9RDZ-1 | 2026-08-31 11:56:24 | 63.86061 | -22.53969 | 85° | 13km/h | 17336m | 5.0m/s | -46.3°C | 1.0% | 0hPa | 0V | 00:00:00 | 00:00:00 | 00:00:00 | |
| DL9RDZ-1 | 2026-08-31 11:56:13 | 63.86052 | -22.54083 | 95° | 20km/h | 17276m | 5.6m/s | -46.4°C | 1.0% | 0hPa | 0V | 00:00:00 | 00:00:00 | 00:00:00 | |
| DL9RDZ-1 | 2026-08-31 11:56:03 | 63.86056 | -22.54209 | 98° | 26km/h | 17220m | 4.5m/s | -46.7°C | 1.0% | 0hPa | 0V | 00:00:00 | 00:00:00 | 00:00:00 | |
| DL9RDZ-1 | 2026-08-31 11:55:53 | 63.86061 | -22.54359 | 91° | 27km/h | 17157m | 6.5m/s | -46.7°C | 1.0% | 0hPa | 0V | 00:00:00 | 00:00:00 | 00:00:00 | |
| DL9RDZ-1 | 2026-08-31 11:55:41 | 63.86056 | -22.54563 | 86° | 33km/h | 17096m | 5.4m/s | -46.5°C | 1.0% | 0hPa | 0V | 00:00:00 | 00:00:00 | 00:00:00 | |
| DL9RDZ-1 | 2026-08-31 11:55:31 | 63.86042 | -22.54804 | 86° | 40km/h | 17037m | 4.6m/s | -46.4°C | 1.0% | 0hPa | 0V | 00:00:00 | 00:00:00 | 00:00:00 | |
| DL9RDZ-1 | 2026-08-31 11:55:19 | 63.86019 | -22.55075 | 86° | 40km/h | 16978m | 5.8m/s | -46.1°C | 1.0% | 0hPa | 0V | 00:00:00 | 00:00:00 | 00:00:00 | |
| DL9RDZ-1 | 2026-08-31 11:55:08 | 63.85996 | -22.55322 | 83° | 37km/h | 16919m | 5.8m/s | -46.3°C | 1.0% | 0hPa | 0V | 00:00:00 | 00:00:00 | 00:00:00 | |
| DL9RDZ-1 | 2026-08-31 11:54:57 | 63.85977 | -22.55545 | 67° | 42km/h | 16862m | 5.0m/s | -46.2°C | 1.0% | 0hPa | 0V | 00:00:00 | 00:00:00 | 00:00:00 | |
| DL9RDZ-1 | 2026-08-31 11:54:47 | 63.85941 | -22.55777 | 66° | 40km/h | 16807m | 3.9m/s | -46.0°C | 1.0% | 0hPa | 0V | 00:00:00 | 00:00:00 | 00:00:00 | |
| DL9RDZ-1 | 2026-08-31 11:54:36 | 63.85902 | -22.56001 | 71° | 38km/h | 16755m | 6.2m/s | -45.7°C | 1.0% | 0hPa | 0V | 00:00:00 | 00:00:00 | 00:00:00 | |
| DL9RDZ-1 | 2026-08-31 11:54:25 | 63.85857 | -22.56217 | 62° | 40km/h | 16699m | 5.7m/s | -45.4°C | 1.0% | 0hPa | 0V | 00:00:00 | 00:00:00 | 00:00:00 | |
| DL9RDZ-1 | 2026-08-31 11:54:15 | 63.85812 | -22.56386 | 54° | 31km/h | 16642m | 3.8m/s | -45.2°C | 1.0% | 0hPa | 0V | 00:00:00 | 00:00:00 | 00:00:00 | |
| DL9RDZ-1 | 2026-08-31 11:54:06 | 63.85770 | -22.56527 | 58° | 26km/h | 16587m | 4.2m/s | -45.2°C | 1.0% | 0hPa | 0V | 00:00:00 | 00:00:00 | 00:00:00 | |
| DL9RDZ-1 | 2026-08-31 11:53:54 | 63.85731 | -22.56633 | 54° | 20km/h | 16530m | 6.1m/s | -45.0°C | 1.0% | 0hPa | 0V | 00:00:00 | 00:00:00 | 00:00:00 | |
| DL9RDZ-1 | 2026-08-31 11:53:44 | 63.85695 | -22.56777 | 85° | 24km/h | 16475m | 4.4m/s | -44.9°C | 1.0% | 0hPa | 0V | 00:00:00 | 00:00:00 | 00:00:00 | |
| DL9RDZ-1 | 2026-08-31 11:53:32 | 63.85671 | -22.56915 | 60° | 22km/h | 16416m | 5.3m/s | -45.0°C | 1.0% | 0hPa | 0V | 00:00:00 | 00:00:00 | 00:00:00 | |
| DL9RDZ-1 | 2026-08-31 11:53:22 | 63.85656 | -22.57063 | 67° | 22km/h | 16357m | 4.3m/s | -44.9°C | 0.9% | 0hPa | 0V | 00:00:00 | 00:00:00 | 00:00:00 | |
| DL9RDZ-1 | 2026-08-31 11:53:12 | 63.85644 | -22.57219 | 94° | 35km/h | 16304m | 6.0m/s | -45.4°C | 1.0% | 0hPa | 0V | 00:00:00 | 00:00:00 | 00:00:00 | |
| DL9RDZ-1 | 2026-08-31 11:53:01 | 63.85639 | -22.57427 | 81° | 31km/h | 16248m | 3.8m/s | -46.2°C | 1.0% | 0hPa | 0V | 00:00:00 | 00:00:00 | 00:00:00 | |
| DL9RDZ-1 | 2026-08-31 11:52:50 | 63.85619 | -22.57570 | 82° | 20km/h | 16198m | 3.7m/s | -46.2°C | 1.0% | 0hPa | 0V | 00:00:00 | 00:00:00 | 00:00:00 | |
| DL9RDZ-1 | 2026-08-31 11:52:40 | 63.85589 | -22.57727 | 60° | 22km/h | 16138m | 6.1m/s | -46.2°C | 1.1% | 0hPa | 0V | 00:00:00 | 00:00:00 | 00:00:00 | |
| DL9RDZ-1 | 2026-08-31 11:52:30 | 63.85559 | -22.57840 | 66° | 26km/h | 16084m | 3.0m/s | -46.3°C | 1.0% | 0hPa | 0V | 00:00:00 | 00:00:00 | 00:00:00 | |
| DL9RDZ-1 | 2026-08-31 11:52:19 | 63.85526 | -22.57951 | 50° | 18km/h | 16032m | 4.9m/s | -46.1°C | 1.0% | 0hPa | 0V | 00:00:00 | 00:00:00 | 00:00:00 | |
| DL9RDZ-1 | 2026-08-31 11:52:07 | 63.85498 | -22.58045 | 40° | 13km/h | 15976m | 3.4m/s | -45.8°C | 1.1% | 0hPa | 0V | 00:00:00 | 00:00:00 | 00:00:00 | |
| DL9RDZ-1 | 2026-08-31 11:51:58 | 63.85477 | -22.58115 | 59° | 15km/h | 15927m | 4.4m/s | -45.9°C | 1.1% | 0hPa | 0V | 00:00:00 | 00:00:00 | 00:00:00 | |
| DL9RDZ-1 | 2026-08-31 11:51:47 | 63.85462 | -22.58171 | 80° | 13km/h | 15870m | 5.9m/s | -46.0°C | 1.1% | 0hPa | 0V | 00:00:00 | 00:00:00 | 00:00:00 | |
| DL9RDZ-1 | 2026-08-31 11:51:35 | 63.85455 | -22.58279 | 91° | 24km/h | 15814m | 4.8m/s | -46.2°C | 1.1% | 0hPa | 0V | 00:00:00 | 00:00:00 | 00:00:00 | |
| DL9RDZ-1 | 2026-08-31 11:51:24 | 63.85449 | -22.58418 | 78° | 24km/h | 15761m | 6.3m/s | -45.9°C | 1.0% | 0hPa | 0V | 00:00:00 | 00:00:00 | 00:00:00 | |
| DL9RDZ-1 | 2026-08-31 11:51:15 | 63.85427 | -22.58525 | 67° | 26km/h | 15710m | 4.6m/s | -45.8°C | 1.1% | 0hPa | 0V | 00:00:00 | 00:00:00 | 00:00:00 | |
| DL9RDZ-1 | 2026-08-31 11:51:05 | 63.85397 | -22.58640 | 56° | 24km/h | 15661m | 3.6m/s | -45.6°C | 1.1% | 0hPa | 0V | 00:00:00 | 00:00:00 | 00:00:00 | |
| DL9RDZ-1 | 2026-08-31 11:50:53 | 63.85371 | -22.58746 | 47° | 20km/h | 15607m | 4.3m/s | -45.6°C | 1.1% | 0hPa | 0V | 00:00:00 | 00:00:00 | 00:00:00 | |
| DL9RDZ-1 | 2026-08-31 11:50:43 | 63.85349 | -22.58828 | 70° | 18km/h | 15559m | 5.5m/s | -45.5°C | 1.1% | 0hPa | 0V | 00:00:00 | 00:00:00 | 00:00:00 | |
| DL9RDZ-1 | 2026-08-31 11:50:32 | 63.85331 | -22.58934 | 70° | 20km/h | 15500m | 4.4m/s | -45.5°C | 1.1% | 0hPa | 0V | 00:00:00 | 00:00:00 | 00:00:00 | |
| DL9RDZ-1 | 2026-08-31 11:50:21 | 63.85304 | -22.59049 | 62° | 22km/h | 15441m | 5.6m/s | -45.3°C | 1.0% | 0hPa | 0V | 00:00:00 | 00:00:00 | 00:00:00 | |
| DL9RDZ-1 | 2026-08-31 11:50:11 | 63.85278 | -22.59133 | 43° | 22km/h | 15389m | 4.5m/s | -45.3°C | 1.0% | 0hPa | 0V | 00:00:00 | 00:00:00 | 00:00:00 | |
| DL9RDZ-1 | 2026-08-31 11:50:00 | 63.85245 | -22.59209 | 53° | 13km/h | 15334m | 4.0m/s | -45.6°C | 1.1% | 0hPa | 0V | 00:00:00 | 00:00:00 | 00:00:00 | |
| DL9RDZ-1 | 2026-08-31 11:49:50 | 63.85224 | -22.59295 | 79° | 15km/h | 15275m | 4.8m/s | -45.7°C | 1.1% | 0hPa | 0V | 00:00:00 | 00:00:00 | 00:00:00 | |
| DL9RDZ-1 | 2026-08-31 11:49:38 | 63.85217 | -22.59369 | 86° | 11km/h | 15217m | 5.8m/s | -45.7°C | 1.1% | 0hPa | 0V | 00:00:00 | 00:00:00 | 00:00:00 | |
| DL9RDZ-1 | 2026-08-31 11:49:29 | 63.85210 | -22.59439 | 102° | 13km/h | 15163m | 5.9m/s | -45.7°C | 1.1% | 0hPa | 0V | 00:00:00 | 00:00:00 | 00:00:00 | |
| DL9RDZ-1 | 2026-08-31 11:49:17 | 63.85215 | -22.59550 | 111° | 18km/h | 15108m | 4.3m/s | -45.5°C | 1.1% | 0hPa | 0V | 00:00:00 | 00:00:00 | 00:00:00 | |
| DL9RDZ-1 | 2026-08-31 11:49:02 | 63.85237 | -22.59751 | 104° | 26km/h | 15028m | 5.7m/s | -45.4°C | 1.1% | 0hPa | 0V | 00:00:00 | 00:00:00 | 00:00:00 | |
| DL9RDZ-1 | 2026-08-31 11:48:52 | 63.85251 | -22.59921 | 103° | 29km/h | 14968m | 5.4m/s | -45.2°C | 1.1% | 0hPa | 0V | 00:00:00 | 00:00:00 | 00:00:00 | |
| DL9RDZ-1 | 2026-08-31 11:48:41 | 63.85262 | -22.60083 | 89° | 27km/h | 14914m | 5.9m/s | -44.8°C | 1.1% | 0hPa | 0V | 00:00:00 | 00:00:00 | 00:00:00 | |
| DL9RDZ-1 | 2026-08-31 11:48:31 | 63.85269 | -22.60263 | 92° | 27km/h | 14858m | 4.7m/s | -44.6°C | 1.1% | 0hPa | 0V | 00:00:00 | 00:00:00 | 00:00:00 | |
| DL9RDZ-1 | 2026-08-31 11:48:19 | 63.85274 | -22.60413 | 98° | 26km/h | 14802m | 5.0m/s | -44.3°C | 1.0% | 0hPa | 0V | 00:00:00 | 00:00:00 | 00:00:00 | |
| DL9RDZ-1 | 2026-08-31 11:48:10 | 63.85277 | -22.60578 | 90° | 31km/h | 14751m | 3.6m/s | -44.1°C | 1.0% | 0hPa | 0V | 00:00:00 | 00:00:00 | 00:00:00 | |
| DL9RDZ-1 | 2026-08-31 11:47:59 | 63.85271 | -22.60740 | 81° | 29km/h | 14702m | 5.4m/s | -44.0°C | 1.0% | 0hPa | 0V | 00:00:00 | 00:00:00 | 00:00:00 | |
| DL9RDZ-1 | 2026-08-31 11:47:49 | 63.85249 | -22.60901 | 76° | 31km/h | 14653m | 5.1m/s | -43.7°C | 1.0% | 0hPa | 0V | 00:00:00 | 00:00:00 | 00:00:00 | |
| DL9RDZ-1 | 2026-08-31 11:47:39 | 63.85219 | -22.61086 | 66° | 35km/h | 14599m | 4.7m/s | -44.4°C | 1.1% | 0hPa | 0V | 00:00:00 | 00:00:00 | 00:00:00 | |
| DL9RDZ-1 | 2026-08-31 11:47:28 | 63.85186 | -22.61273 | 59° | 33km/h | 14550m | 5.2m/s | -44.4°C | 1.1% | 0hPa | 0V | 00:00:00 | 00:00:00 | 00:00:00 | |
| DL9RDZ-1 | 2026-08-31 11:47:18 | 63.85142 | -22.61420 | 60° | 29km/h | 14493m | 5.4m/s | -44.4°C | 1.1% | 0hPa | 0V | 00:00:00 | 00:00:00 | 00:00:00 | |
| DL9RDZ-1 | 2026-08-31 11:47:08 | 63.85095 | -22.61583 | 61° | 31km/h | 14434m | 6.8m/s | -44.2°C | 1.1% | 0hPa | 0V | 00:00:00 | 00:00:00 | 00:00:00 | |
| DL9RDZ-1 | 2026-08-31 11:46:56 | 63.85038 | -22.61734 | 45° | 31km/h | 14375m | 5.1m/s | -44.0°C | 1.1% | 0hPa | 0V | 00:00:00 | 00:00:00 | 00:00:00 | |
| DL9RDZ-1 | 2026-08-31 11:46:46 | 63.84978 | -22.61875 | 37° | 29km/h | 14322m | 4.7m/s | -43.8°C | 1.1% | 0hPa | 0V | 00:00:00 | 00:00:00 | 00:00:00 | |
| DL9RDZ-1 | 2026-08-31 11:46:36 | 63.84917 | -22.61970 | 41° | 26km/h | 14271m | 6.6m/s | -43.6°C | 1.0% | 0hPa | 0V | 00:00:00 | 00:00:00 | 00:00:00 | |
| DL9RDZ-1 | 2026-08-31 11:46:25 | 63.84861 | -22.62060 | 31° | 29km/h | 14219m | 5.6m/s | -43.5°C | 1.0% | 0hPa | 0V | 00:00:00 | 00:00:00 | 00:00:00 | |
| DL9RDZ-1 | 2026-08-31 11:46:14 | 63.84803 | -22.62138 | 39° | 24km/h | 14165m | 5.1m/s | -43.7°C | 1.1% | 0hPa | 0V | 00:00:00 | 00:00:00 | 00:00:00 | |
| DL9RDZ-1 | 2026-08-31 11:46:03 | 63.84774 | -22.62186 | 33° | 20km/h | 14109m | 6.2m/s | -43.4°C | 1.0% | 0hPa | 0V | 00:00:00 | 00:00:00 | 00:00:00 | |
| DL9RDZ-1 | 2026-08-31 11:45:53 | 63.84756 | -22.62222 | 47° | 5km/h | 14034m | 5.3m/s | -43.6°C | 1.1% | 0hPa | 0V | 00:00:00 | 00:00:00 | 00:00:00 | |
| DL9RDZ-1 | 2026-08-31 11:45:42 | 63.84758 | -22.62280 | 103° | 11km/h | 13978m | 5.2m/s | -43.5°C | 1.0% | 0hPa | 0V | 00:00:00 | 00:00:00 | 00:00:00 | |
| DL9RDZ-1 | 2026-08-31 11:45:32 | 63.84776 | -22.62363 | 106° | 15km/h | 13919m | 4.2m/s | -43.9°C | 1.1% | 0hPa | 0V | 00:00:00 | 00:00:00 | 00:00:00 | |
| DL9RDZ-1 | 2026-08-31 11:45:20 | 63.84814 | -22.62471 | 136° | 22km/h | 13863m | 5.4m/s | -43.9°C | 1.1% | 0hPa | 0V | 00:00:00 | 00:00:00 | 00:00:00 | |
| DL9RDZ-1 | 2026-08-31 11:45:09 | 63.84846 | -22.62571 | 121° | 27km/h | 13808m | 3.9m/s | -43.8°C | 1.1% | 0hPa | 0V | 00:00:00 | 00:00:00 | 00:00:00 | |
| DL9RDZ-1 | 2026-08-31 11:44:59 | 63.84875 | -22.62705 | 108° | 27km/h | 13758m | 4.0m/s | -44.0°C | 1.1% | 0hPa | 0V | 00:00:00 | 00:00:00 | 00:00:00 | |
| DL9RDZ-1 | 2026-08-31 11:44:49 | 63.84889 | -22.62869 | 101° | 33km/h | 13704m | 3.5m/s | -44.6°C | 1.1% | 0hPa | 0V | 00:00:00 | 00:00:00 | 00:00:00 | |
| DL9RDZ-1 | 2026-08-31 11:44:38 | 63.84898 | -22.63104 | 97° | 35km/h | 13651m | 4.4m/s | -44.8°C | 1.2% | 0hPa | 0V | 00:00:00 | 00:00:00 | 00:00:00 | |
| DL9RDZ-1 | 2026-08-31 11:44:29 | 63.84912 | -22.63290 | 101° | 35km/h | 13601m | 5.9m/s | -45.0°C | 1.2% | 0hPa | 0V | 00:00:00 | 00:00:00 | 00:00:00 | |
| DL9RDZ-1 | 2026-08-31 11:44:17 | 63.84920 | -22.63474 | 92° | 26km/h | 13549m | 5.7m/s | -45.0°C | 1.2% | 0hPa | 0V | 00:00:00 | 00:00:00 | 00:00:00 | |
| DL9RDZ-1 | 2026-08-31 11:44:07 | 63.84916 | -22.63632 | 80° | 31km/h | 13500m | 5.2m/s | -44.9°C | 1.2% | 0hPa | 0V | 00:00:00 | 00:00:00 | 00:00:00 | |
| DL9RDZ-1 | 2026-08-31 11:43:57 | 63.84913 | -22.63775 | 86° | 22km/h | 13449m | 5.9m/s | -44.9°C | 1.2% | 0hPa | 0V | 00:00:00 | 00:00:00 | 00:00:00 | |
| DL9RDZ-1 | 2026-08-31 11:43:47 | 63.84911 | -22.63907 | 99° | 20km/h | 13400m | 3.2m/s | -44.9°C | 1.2% | 0hPa | 0V | 00:00:00 | 00:00:00 | 00:00:00 | |
| DL9RDZ-1 | 2026-08-31 11:43:37 | 63.84912 | -22.64026 | 101° | 18km/h | 13350m | 3.8m/s | -45.3°C | 1.2% | 0hPa | 0V | 00:00:00 | 00:00:00 | 00:00:00 | |
| DL9RDZ-1 | 2026-08-31 11:43:24 | 63.84924 | -22.64186 | 91° | 15km/h | 13286m | 3.2m/s | -45.6°C | 1.2% | 0hPa | 0V | 00:00:00 | 00:00:00 | 00:00:00 | |
| DL9RDZ-1 | 2026-08-31 11:43:14 | 63.84946 | -22.64280 | 126° | 18km/h | 13235m | 4.6m/s | -45.6°C | 1.3% | 0hPa | 0V | 00:00:00 | 00:00:00 | 00:00:00 | |
| DL9RDZ-1 | 2026-08-31 11:42:35 | 63.85142 | -22.64712 | 145° | 33km/h | 13018m | 1.3m/s | -45.4°C | 1.3% | 0hPa | 0V | 00:00:00 | 00:00:00 | 00:00:00 | |
| DL9RDZ-1 | 2026-08-31 11:42:22 | 63.85192 | -22.64864 | 126° | 24km/h | 12968m | 2.9m/s | -45.2°C | 1.3% | 0hPa | 0V | 00:00:00 | 00:00:00 | 00:00:00 | |
| DL9RDZ-1 | 2026-08-31 11:42:11 | 63.85230 | -22.65045 | 113° | 35km/h | 12912m | 6.1m/s | -45.3°C | 1.3% | 0hPa | 0V | 00:00:00 | 00:00:00 | 00:00:00 | |
| DL9RDZ-1 | 2026-08-31 11:42:00 | 63.85257 | -22.65227 | 107° | 27km/h | 12856m | 4.6m/s | -45.3°C | 1.3% | 0hPa | 0V | 00:00:00 | 00:00:00 | 00:00:00 | |
| DL9RDZ-1 | 2026-08-31 11:41:50 | 63.85271 | -22.65372 | 99° | 22km/h | 12800m | 7.3m/s | -45.0°C | 1.3% | 0hPa | 0V | 00:00:00 | 00:00:00 | 00:00:00 | |
| DL9RDZ-1 | 2026-08-31 11:41:38 | 63.85283 | -22.65530 | 105° | 27km/h | 12741m | 3.2m/s | -44.7°C | 1.3% | 0hPa | 0V | 00:00:00 | 00:00:00 | 00:00:00 | |
| DL9RDZ-1 | 2026-08-31 11:41:27 | 63.85300 | -22.65719 | 104° | 35km/h | 12680m | 3.3m/s | -44.3°C | 1.3% | 0hPa | 0V | 00:00:00 | 00:00:00 | 00:00:00 | |
| DL9RDZ-1 | 2026-08-31 11:41:06 | 63.85347 | -22.66160 | 96° | 37km/h | 12567m | 3.8m/s | -43.9°C | 1.2% | 0hPa | 0V | 00:00:00 | 00:00:00 | 00:00:00 | |
| DL9RDZ-1 | 2026-08-31 11:40:55 | 63.85354 | -22.66389 | 97° | 40km/h | 12518m | 5.4m/s | -43.9°C | 1.2% | 0hPa | 0V | 00:00:00 | 00:00:00 | 00:00:00 | |
| DL9RDZ-1 | 2026-08-31 11:40:45 | 63.85358 | -22.66648 | 84° | 40km/h | 12461m | 4.2m/s | -44.2°C | 1.3% | 0hPa | 0V | 00:00:00 | 00:00:00 | 00:00:00 | |
| DL9RDZ-1 | 2026-08-31 11:40:34 | 63.85346 | -22.66844 | 90° | 33km/h | 12411m | 4.8m/s | -43.8°C | 1.3% | 0hPa | 0V | 00:00:00 | 00:00:00 | 00:00:00 | |
| DL9RDZ-1 | 2026-08-31 11:40:24 | 63.85331 | -22.67045 | 72° | 27km/h | 12358m | 5.5m/s | -43.6°C | 1.3% | 0hPa | 0V | 00:00:00 | 00:00:00 | 00:00:00 | |
| DL9RDZ-1 | 2026-08-31 11:40:12 | 63.85312 | -22.67223 | 69° | 27km/h | 12296m | 5.4m/s | -43.8°C | 1.3% | 0hPa | 0V | 00:00:00 | 00:00:00 | 00:00:00 | |
| DL9RDZ-1 | 2026-08-31 11:40:01 | 63.85295 | -22.67378 | 92° | 27km/h | 12250m | 3.0m/s | -44.2°C | 1.4% | 0hPa | 0V | 00:00:00 | 00:00:00 | 00:00:00 | |
| DL9RDZ-1 | 2026-08-31 11:39:50 | 63.85300 | -22.67543 | 94° | 24km/h | 12196m | 4.9m/s | -43.9°C | 1.4% | 0hPa | 0V | 00:00:00 | 00:00:00 | 00:00:00 | |
| DL9RDZ-1 | 2026-08-31 11:39:39 | 63.85306 | -22.67707 | 102° | 27km/h | 12142m | 4.4m/s | -44.1°C | 1.4% | 0hPa | 0V | 00:00:00 | 00:00:00 | 00:00:00 | |
| DL9RDZ-1 | 2026-08-31 11:39:30 | 63.85323 | -22.67845 | 115° | 29km/h | 12094m | 3.5m/s | -44.3°C | 1.5% | 0hPa | 0V | 00:00:00 | 00:00:00 | 00:00:00 | |
| DL9RDZ-1 | 2026-08-31 11:38:59 | 63.85405 | -22.68235 | 129° | 27km/h | 11945m | 5.9m/s | -45.4°C | 1.6% | 0hPa | 0V | 00:00:00 | 00:00:00 | 00:00:00 | |
| DL9RDZ-1 | 2026-08-31 11:38:49 | 63.85446 | -22.68377 | 117° | 26km/h | 11893m | 5.1m/s | -45.2°C | 1.6% | 0hPa | 0V | 00:00:00 | 00:00:00 | 00:00:00 | |
| DL9RDZ-1 | 2026-08-31 11:38:37 | 63.85479 | -22.68545 | 110° | 27km/h | 11840m | 4.5m/s | -45.0°C | 1.6% | 0hPa | 0V | 00:00:00 | 00:00:00 | 00:00:00 | |
| DL9RDZ-1 | 2026-08-31 11:38:26 | 63.85499 | -22.68719 | 90° | 35km/h | 11781m | 4.9m/s | -44.9°C | 1.5% | 0hPa | 0V | 00:00:00 | 00:00:00 | 00:00:00 | |
| DL9RDZ-1 | 2026-08-31 11:38:15 | 63.85497 | -22.68914 | 86° | 31km/h | 11724m | 5.0m/s | -44.9°C | 1.5% | 0hPa | 0V | 00:00:00 | 00:00:00 | 00:00:00 | |
| DL9RDZ-1 | 2026-08-31 11:38:04 | 63.85505 | -22.69077 | 105° | 24km/h | 11674m | 4.3m/s | -44.8°C | 1.5% | 0hPa | 0V | 00:00:00 | 00:00:00 | 00:00:00 | |
| DL9RDZ-1 | 2026-08-31 11:37:54 | 63.85512 | -22.69201 | 99° | 18km/h | 11628m | 5.9m/s | -45.0°C | 1.5% | 0hPa | 0V | 00:00:00 | 00:00:00 | 00:00:00 | |
| DL9RDZ-1 | 2026-08-31 11:37:43 | 63.85516 | -22.69327 | 100° | 24km/h | 11575m | 5.9m/s | -45.0°C | 1.5% | 0hPa | 0V | 00:00:00 | 00:00:00 | 00:00:00 | |
| DL9RDZ-1 | 2026-08-31 11:37:33 | 63.85522 | -22.69452 | 112° | 20km/h | 11524m | 4.9m/s | -44.9°C | 1.6% | 0hPa | 0V | 00:00:00 | 00:00:00 | 00:00:00 | |
| DL9RDZ-1 | 2026-08-31 11:37:21 | 63.85540 | -22.69557 | 117° | 18km/h | 11474m | 5.1m/s | -44.8°C | 1.5% | 0hPa | 0V | 00:00:00 | 00:00:00 | 00:00:00 | |
| DL9RDZ-1 | 2026-08-31 11:37:10 | 63.85549 | -22.69663 | 99° | 16km/h | 11423m | 2.5m/s | -44.6°C | 1.5% | 0hPa | 0V | 00:00:00 | 00:00:00 | 00:00:00 | |
| DL9RDZ-1 | 2026-08-31 11:37:01 | 63.85563 | -22.69747 | 104° | 13km/h | 11381m | 5.0m/s | -44.6°C | 1.5% | 0hPa | 0V | 00:00:00 | 00:00:00 | 00:00:00 | |
| DL9RDZ-1 | 2026-08-31 11:36:49 | 63.85572 | -22.69826 | 102° | 11km/h | 11329m | 6.1m/s | -44.7°C | 1.6% | 0hPa | 0V | 00:00:00 | 00:00:00 | 00:00:00 | |
| DL9RDZ-1 | 2026-08-31 11:36:38 | 63.85592 | -22.69931 | 119° | 16km/h | 11279m | 6.0m/s | -44.4°C | 1.5% | 0hPa | 0V | 00:00:00 | 00:00:00 | 00:00:00 | |
| DL9RDZ-1 | 2026-08-31 11:36:28 | 63.85614 | -22.70015 | 125° | 20km/h | 11232m | 5.0m/s | -44.3°C | 1.6% | 0hPa | 0V | 00:00:00 | 00:00:00 | 00:00:00 | |
| DL9RDZ-1 | 2026-08-31 11:36:17 | 63.85654 | -22.70113 | 161° | 24km/h | 11182m | 5.3m/s | -44.2°C | 1.6% | 0hPa | 0V | 00:00:00 | 00:00:00 | 00:00:00 | |
| DL9RDZ-1 | 2026-08-31 11:36:07 | 63.85695 | -22.70180 | 149° | 20km/h | 11137m | 4.0m/s | -44.5°C | 1.6% | 0hPa | 0V | 00:00:00 | 00:00:00 | 00:00:00 | |
| DL9RDZ-1 | 2026-08-31 11:35:57 | 63.85746 | -22.70273 | 133° | 27km/h | 11092m | 5.1m/s | -44.5°C | 1.8% | 0hPa | 0V | 00:00:00 | 00:00:00 | 00:00:00 | |
| DL9RDZ-1 | 2026-08-31 11:35:47 | 63.85797 | -22.70391 | 132° | 24km/h | 11044m | 4.3m/s | -44.7°C | 1.9% | 0hPa | 0V | 00:00:00 | 00:00:00 | 00:00:00 | |
| DL9RDZ-1 | 2026-08-31 11:35:36 | 63.85833 | -22.70512 | 126° | 22km/h | 11000m | 4.3m/s | -45.2°C | 2.1% | 0hPa | 0V | 00:00:00 | 00:00:00 | 00:00:00 | |
| DL9RDZ-1 | 2026-08-31 11:35:26 | 63.85864 | -22.70619 | 127° | 20km/h | 10956m | 3.2m/s | -45.2°C | 2.1% | 0hPa | 0V | 00:00:00 | 00:00:00 | 00:00:00 | |
| DL9RDZ-1 | 2026-08-31 11:35:16 | 63.85898 | -22.70709 | 130° | 22km/h | 10912m | 4.5m/s | -45.4°C | 2.2% | 0hPa | 0V | 00:00:00 | 00:00:00 | 00:00:00 | |
| DL9RDZ-1 | 2026-08-31 11:34:57 | 63.85981 | -22.70922 | 131° | 22km/h | 10829m | 6.2m/s | -45.5°C | 2.2% | 0hPa | 0V | 00:00:00 | 00:00:00 | 00:00:00 | |
| DL9RDZ-1 | 2026-08-31 11:34:46 | 63.86036 | -22.71029 | 147° | 24km/h | 10775m | 4.9m/s | -46.0°C | 2.3% | 0hPa | 0V | 00:00:00 | 00:00:00 | 00:00:00 | |
| DL9RDZ-1 | 2026-08-31 11:34:35 | 63.86094 | -22.71115 | 138° | 26km/h | 10721m | 4.1m/s | -46.1°C | 2.3% | 0hPa | 0V | 00:00:00 | 00:00:00 | 00:00:00 | |
| DL9RDZ-1 | 2026-08-31 11:34:24 | 63.86170 | -22.71239 | 148° | 29km/h | 10664m | 3.9m/s | -46.0°C | 2.4% | 0hPa | 0V | 00:00:00 | 00:00:00 | 00:00:00 | |
| DL9RDZ-1 | 2026-08-31 11:34:14 | 63.86236 | -22.71343 | 143° | 29km/h | 10613m | 4.6m/s | -46.1°C | 2.6% | 0hPa | 0V | 00:00:00 | 00:00:00 | 00:00:00 | |
| DL9RDZ-1 | 2026-08-31 11:34:04 | 63.86292 | -22.71450 | 146° | 29km/h | 10563m | 5.9m/s | -46.5°C | 2.8% | 0hPa | 0V | 00:00:00 | 00:00:00 | 00:00:00 | |
| DL9RDZ-1 | 2026-08-31 11:33:53 | 63.86361 | -22.71543 | 152° | 24km/h | 10512m | 5.3m/s | -46.7°C | 2.9% | 0hPa | 0V | 00:00:00 | 00:00:00 | 00:00:00 | |
| DL9RDZ-1 | 2026-08-31 11:33:42 | 63.86421 | -22.71574 | 176° | 27km/h | 10460m | 3.9m/s | -46.7°C | 3.1% | 0hPa | 0V | 00:00:00 | 00:00:00 | 00:00:00 | |
| DL9RDZ-1 | 2026-08-31 11:33:31 | 63.86487 | -22.71584 | 176° | 26km/h | 10407m | 3.6m/s | -47.0°C | 3.5% | 0hPa | 0V | 00:00:00 | 00:00:00 | 00:00:00 | |
| DL9RDZ-1 | 2026-08-31 11:33:20 | 63.86558 | -22.71626 | 169° | 27km/h | 10355m | 3.8m/s | -47.9°C | 4.2% | 0hPa | 0V | 00:00:00 | 00:00:00 | 00:00:00 | |
| DL9RDZ-1 | 2026-08-31 11:33:09 | 63.86640 | -22.71681 | 158° | 33km/h | 10305m | 2.9m/s | -48.4°C | 4.8% | 0hPa | 0V | 00:00:00 | 00:00:00 | 00:00:00 | |
| DL9RDZ-1 | 2026-08-31 11:32:59 | 63.86714 | -22.71746 | 145° | 29km/h | 10260m | 4.5m/s | -48.9°C | 5.1% | 0hPa | 0V | 00:00:00 | 00:00:00 | 00:00:00 | |
| DL9RDZ-1 | 2026-08-31 11:32:48 | 63.86783 | -22.71808 | 161° | 29km/h | 10211m | 4.6m/s | -48.7°C | 5.1% | 0hPa | 0V | 00:00:00 | 00:00:00 | 00:00:00 | |
| DL9RDZ-1 | 2026-08-31 11:32:39 | 63.86851 | -22.71827 | 183° | 26km/h | 10166m | 3.8m/s | -48.4°C | 5.5% | 0hPa | 0V | 00:00:00 | 00:00:00 | 00:00:00 | |
| DL9RDZ-1 | 2026-08-31 11:32:27 | 63.86921 | -22.71825 | 177° | 29km/h | 10114m | 5.0m/s | -48.7°C | 6.0% | 0hPa | 0V | 00:00:00 | 00:00:00 | 00:00:00 | |
| DL9RDZ-1 | 2026-08-31 11:32:18 | 63.86999 | -22.71804 | 195° | 29km/h | 10071m | 3.8m/s | -48.8°C | 6.4% | 0hPa | 0V | 00:00:00 | 00:00:00 | 00:00:00 | |
| DL9RDZ-1 | 2026-08-31 11:32:06 | 63.87077 | -22.71793 | 176° | 27km/h | 10022m | 4.9m/s | -49.0°C | 7.3% | 0hPa | 0V | 00:00:00 | 00:00:00 | 00:00:00 | |
| DL9RDZ-1 | 2026-08-31 11:31:56 | 63.87152 | -22.71785 | 186° | 40km/h | 9978m | 3.7m/s | -49.8°C | 8.7% | 0hPa | 0V | 00:00:00 | 00:00:00 | 00:00:00 | |
| DL9RDZ-1 | 2026-08-31 11:31:46 | 63.87258 | -22.71777 | 181° | 40km/h | 9929m | 4.6m/s | -50.0°C | 9.2% | 0hPa | 0V | 00:00:00 | 00:00:00 | 00:00:00 | |
| DL9RDZ-1 | 2026-08-31 11:31:35 | 63.87376 | -22.71778 | 184° | 46km/h | 9879m | 3.8m/s | -50.6°C | 10.6% | 0hPa | 0V | 00:00:00 | 00:00:00 | 00:00:00 | |
| DL9RDZ-1 | 2026-08-31 11:31:24 | 63.87485 | -22.71734 | 192° | 46km/h | 9830m | 5.3m/s | -50.6°C | 12.0% | 0hPa | 0V | 00:00:00 | 00:00:00 | 00:00:00 | |
| DL9RDZ-1 | 2026-08-31 11:31:14 | 63.87590 | -22.71676 | 216° | 46km/h | 9784m | 5.1m/s | -50.3°C | 13.6% | 0hPa | 0V | 00:00:00 | 00:00:00 | 00:00:00 | |
| DL9RDZ-1 | 2026-08-31 11:31:04 | 63.87701 | -22.71573 | 190° | 53km/h | 9719m | 4.2m/s | -49.9°C | 16.1% | 0hPa | 0V | 00:00:00 | 00:00:00 | 00:00:00 | |
| DL9RDZ-1 | 2026-08-31 11:30:53 | 63.87838 | -22.71506 | 193° | 53km/h | 9664m | 5.2m/s | -50.5°C | 20.3% | 0hPa | 0V | 00:00:00 | 00:00:00 | 00:00:00 | |
| DL9RDZ-1 | 2026-08-31 11:30:43 | 63.87980 | -22.71466 | 191° | 58km/h | 9619m | 4.4m/s | -51.4°C | 25.5% | 0hPa | 0V | 00:00:00 | 00:00:00 | 00:00:00 | |
| DL9RDZ-1 | 2026-08-31 11:30:33 | 63.88137 | -22.71423 | 182° | 62km/h | 9570m | 6.0m/s | -52.1°C | 35.0% | 0hPa | 0V | 00:00:00 | 00:00:00 | 00:00:00 | |
| DL9RDZ-1 | 2026-08-31 11:30:22 | 63.88314 | -22.71386 | 191° | 66km/h | 9519m | 4.3m/s | -52.5°C | 43.0% | 0hPa | 0V | 00:00:00 | 00:00:00 | 00:00:00 | |
| DL9RDZ-1 | 2026-08-31 11:30:11 | 63.88496 | -22.71281 | 197° | 71km/h | 9461m | 6.2m/s | -52.3°C | 46.5% | 0hPa | 0V | 00:00:00 | 00:00:00 | 00:00:00 | |
| DL9RDZ-1 | 2026-08-31 11:30:00 | 63.88689 | -22.71153 | 200° | 77km/h | 9409m | 5.0m/s | -52.0°C | 44.7% | 0hPa | 0V | 00:00:00 | 00:00:00 | 00:00:00 | |
| DL9RDZ-1 | 2026-08-31 11:29:49 | 63.88891 | -22.71020 | 197° | 75km/h | 9353m | 4.0m/s | -51.6°C | 41.7% | 0hPa | 0V | 00:00:00 | 00:00:00 | 00:00:00 | |
| DL9RDZ-1 | 2026-08-31 11:29:40 | 63.89075 | -22.70913 | 195° | 73km/h | 9306m | 4.4m/s | -51.4°C | 40.4% | 0hPa | 0V | 00:00:00 | 00:00:00 | 00:00:00 | |
| DL9RDZ-1 | 2026-08-31 11:29:28 | 63.89271 | -22.70791 | 194° | 77km/h | 9251m | 4.1m/s | -51.1°C | 41.6% | 0hPa | 0V | 00:00:00 | 00:00:00 | 00:00:00 | |
| DL9RDZ-1 | 2026-08-31 11:29:18 | 63.89459 | -22.70665 | 199° | 75km/h | 9194m | 5.8m/s | -50.9°C | 40.2% | 0hPa | 0V | 00:00:00 | 00:00:00 | 00:00:00 | |
| DL9RDZ-1 | 2026-08-31 11:29:07 | 63.89668 | -22.70515 | 196° | 82km/h | 9144m | 3.7m/s | -50.6°C | 42.3% | 0hPa | 0V | 00:00:00 | 00:00:00 | 00:00:00 | |
| DL9RDZ-1 | 2026-08-31 11:28:56 | 63.89884 | -22.70370 | 199° | 86km/h | 9094m | 3.7m/s | -50.2°C | 42.2% | 0hPa | 0V | 00:00:00 | 00:00:00 | 00:00:00 | |
| DL9RDZ-1 | 2026-08-31 11:28:46 | 63.90084 | -22.70240 | 201° | 77km/h | 9046m | 3.9m/s | -49.8°C | 41.2% | 0hPa | 0V | 00:00:00 | 00:00:00 | 00:00:00 | |
| DL9RDZ-1 | 2026-08-31 11:28:35 | 63.90295 | -22.70094 | 195° | 84km/h | 8993m | 4.6m/s | -49.5°C | 40.6% | 0hPa | 0V | 00:00:00 | 00:00:00 | 00:00:00 | |
| DL9RDZ-1 | 2026-08-31 11:28:24 | 63.90509 | -22.69958 | 197° | 82km/h | 8940m | 5.0m/s | -49.1°C | 40.3% | 0hPa | 0V | 00:00:00 | 00:00:00 | 00:00:00 | |
| DL9RDZ-1 | 2026-08-31 11:28:14 | 63.90722 | -22.69799 | 198° | 77km/h | 8887m | 4.8m/s | -48.7°C | 40.7% | 0hPa | 0V | 00:00:00 | 00:00:00 | 00:00:00 | |
| DL9RDZ-1 | 2026-08-31 11:28:02 | 63.90943 | -22.69671 | 198° | 80km/h | 8830m | 5.0m/s | -48.2°C | 41.7% | 0hPa | 0V | 00:00:00 | 00:00:00 | 00:00:00 | |
| DL9RDZ-1 | 2026-08-31 11:27:51 | 63.91163 | -22.69553 | 196° | 80km/h | 8767m | 6.6m/s | -47.8°C | 38.4% | 0hPa | 0V | 00:00:00 | 00:00:00 | 00:00:00 | |
| DL9RDZ-1 | 2026-08-31 11:27:40 | 63.91381 | -22.69395 | 199° | 80km/h | 8703m | 7.6m/s | -47.5°C | 39.6% | 0hPa | 0V | 00:00:00 | 00:00:00 | 00:00:00 | |
| DL9RDZ-1 | 2026-08-31 11:27:29 | 63.91587 | -22.69227 | 200° | 75km/h | 8640m | 4.6m/s | -47.3°C | 35.1% | 0hPa | 0V | 00:00:00 | 00:00:00 | 00:00:00 | |
| DL9RDZ-1 | 2026-08-31 11:27:19 | 63.91778 | -22.69095 | 197° | 75km/h | 8590m | 4.7m/s | -47.1°C | 33.8% | 0hPa | 0V | 00:00:00 | 00:00:00 | 00:00:00 | |
| DL9RDZ-1 | 2026-08-31 11:27:08 | 63.91989 | -22.68969 | 196° | 75km/h | 8532m | 6.3m/s | -46.6°C | 31.4% | 0hPa | 0V | 00:00:00 | 00:00:00 | 00:00:00 | |
| DL9RDZ-1 | 2026-08-31 11:26:58 | 63.92203 | -22.68833 | 196° | 82km/h | 8472m | 3.7m/s | -46.2°C | 26.8% | 0hPa | 0V | 00:00:00 | 00:00:00 | 00:00:00 | |
| DL9RDZ-1 | 2026-08-31 11:26:47 | 63.92400 | -22.68721 | 191° | 82km/h | 8421m | 5.3m/s | -45.9°C | 25.1% | 0hPa | 0V | 00:00:00 | 00:00:00 | 00:00:00 | |
| DL9RDZ-1 | 2026-08-31 11:26:36 | 63.92609 | -22.68640 | 193° | 73km/h | 8358m | 6.7m/s | -45.4°C | 25.1% | 0hPa | 0V | 00:00:00 | 00:00:00 | 00:00:00 | |
| DL9RDZ-1 | 2026-08-31 11:26:26 | 63.92815 | -22.68532 | 194° | 78km/h | 8304m | 6.0m/s | -45.5°C | 27.5% | 0hPa | 0V | 00:00:00 | 00:00:00 | 00:00:00 | |
| DL9RDZ-1 | 2026-08-31 11:26:14 | 63.92997 | -22.68430 | 194° | 68km/h | 8233m | 4.2m/s | -45.1°C | 27.6% | 0hPa | 0V | 00:00:00 | 00:00:00 | 00:00:00 | |
| DL9RDZ-1 | 2026-08-31 11:26:03 | 63.93186 | -22.68347 | 190° | 73km/h | 8160m | 4.2m/s | -44.8°C | 26.3% | 0hPa | 0V | 00:00:00 | 00:00:00 | 00:00:00 | |
| DL9RDZ-1 | 2026-08-31 11:25:54 | 63.93349 | -22.68283 | 192° | 64km/h | 8101m | 6.8m/s | -44.6°C | 25.7% | 0hPa | 0V | 00:00:00 | 00:00:00 | 00:00:00 | |
| DL9RDZ-1 | 2026-08-31 11:25:42 | 63.93513 | -22.68208 | 195° | 58km/h | 8046m | 4.4m/s | -44.3°C | 24.7% | 0hPa | 0V | 00:00:00 | 00:00:00 | 00:00:00 | |
| DL9RDZ-1 | 2026-08-31 11:25:15 | 63.93899 | -22.68092 | 198° | 60km/h | 7894m | 4.1m/s | -44.0°C | 24.9% | 0hPa | 0V | 00:00:00 | 00:00:00 | 00:00:00 | |
| DL9RDZ-1 | 2026-08-31 11:25:04 | 63.94053 | -22.68021 | 189° | 49km/h | 7824m | 4.8m/s | -43.7°C | 25.0% | 0hPa | 0V | 00:00:00 | 00:00:00 | 00:00:00 | |
| DL9RDZ-1 | 2026-08-31 11:24:53 | 63.94204 | -22.67974 | 191° | 46km/h | 7760m | 5.5m/s | -43.3°C | 23.9% | 0hPa | 0V | 00:00:00 | 00:00:00 | 00:00:00 | |
| DL9RDZ-1 | 2026-08-31 11:24:42 | 63.94347 | -22.67925 | 192° | 53km/h | 7694m | 4.1m/s | -42.8°C | 23.4% | 0hPa | 0V | 00:00:00 | 00:00:00 | 00:00:00 | |
| DL9RDZ-1 | 2026-08-31 11:24:32 | 63.94475 | -22.67873 | 193° | 47km/h | 7650m | 4.7m/s | -42.6°C | 24.6% | 0hPa | 0V | 00:00:00 | 00:00:00 | 00:00:00 | |
| DL9RDZ-1 | 2026-08-31 11:24:22 | 63.94601 | -22.67823 | 193° | 47km/h | 7604m | 4.5m/s | -42.4°C | 27.2% | 0hPa | 0V | 00:00:00 | 00:00:00 | 00:00:00 | |
| DL9RDZ-1 | 2026-08-31 11:24:12 | 63.94719 | -22.67781 | 187° | 46km/h | 7559m | 5.1m/s | -42.2°C | 29.7% | 0hPa | 0V | 00:00:00 | 00:00:00 | 00:00:00 | |
| DL9RDZ-1 | 2026-08-31 11:23:54 | 63.94925 | -22.67734 | 188° | 49km/h | 7451m | 4.8m/s | -41.5°C | 27.5% | 0hPa | 0V | 00:00:00 | 00:00:00 | 00:00:00 | |
| DL9RDZ-1 | 2026-08-31 11:23:16 | 63.95300 | -22.67579 | 188° | 37km/h | 7251m | 7.3m/s | -40.2°C | 21.9% | 0hPa | 0V | 00:00:00 | 00:00:00 | 00:00:00 | |
| DL9RDZ-1 | 2026-08-31 11:23:04 | 63.95389 | -22.67609 | 159° | 31km/h | 7191m | 3.8m/s | -39.9°C | 22.1% | 0hPa | 0V | 00:00:00 | 00:00:00 | 00:00:00 | |
| DL9RDZ-1 | 2026-08-31 11:22:54 | 63.95456 | -22.67645 | 156° | 33km/h | 7131m | 5.4m/s | -39.7°C | 25.6% | 0hPa | 0V | 00:00:00 | 00:00:00 | 00:00:00 | |
| DL9RDZ-1 | 2026-08-31 11:22:43 | 63.95521 | -22.67701 | 171° | 16km/h | 7064m | 6.8m/s | -39.3°C | 36.0% | 0hPa | 0V | 00:00:00 | 00:00:00 | 00:00:00 | |
| DL9RDZ-1 | 2026-08-31 11:22:33 | 63.95569 | -22.67714 | 164° | 18km/h | 7005m | 5.1m/s | -39.0°C | 38.5% | 0hPa | 0V | 00:00:00 | 00:00:00 | 00:00:00 | |
| DL9RDZ-1 | 2026-08-31 11:22:22 | 63.95601 | -22.67763 | 167° | 22km/h | 6941m | 4.3m/s | -38.4°C | 37.3% | 0hPa | 0V | 00:00:00 | 00:00:00 | 00:00:00 | |
| DL9RDZ-1 | 2026-08-31 11:22:13 | 63.95643 | -22.67795 | 162° | 16km/h | 6881m | 4.2m/s | -38.2°C | 39.2% | 0hPa | 0V | 00:00:00 | 00:00:00 | 00:00:00 | |
| DL9RDZ-1 | 2026-08-31 11:21:45 | 63.95727 | -22.67862 | 164° | 16km/h | 6725m | 4.2m/s | -37.3°C | 52.8% | 0hPa | 0V | 00:00:00 | 00:00:00 | 00:00:00 | |
| DL9RDZ-1 | 2026-08-31 11:21:35 | 63.95754 | -22.67913 | 144° | 7km/h | 6668m | 3.9m/s | -36.8°C | 55.4% | 0hPa | 0V | 00:00:00 | 00:00:00 | 00:00:00 | |
| DL9RDZ-1 | 2026-08-31 11:21:25 | 63.95763 | -22.67967 | 142° | 18km/h | 6611m | 4.2m/s | -36.5°C | 56.2% | 0hPa | 0V | 00:00:00 | 00:00:00 | 00:00:00 | |
| DL9RDZ-1 | 2026-08-31 11:21:14 | 63.95783 | -22.68048 | 133° | 5km/h | 6550m | 7.2m/s | -36.0°C | 55.5% | 0hPa | 0V | 00:00:00 | 00:00:00 | 00:00:00 | |
| DL9RDZ-1 | 2026-08-31 11:21:04 | 63.95793 | -22.68108 | 79° | 7km/h | 6485m | 6.3m/s | -35.4°C | 53.7% | 0hPa | 0V | 00:00:00 | 00:00:00 | 00:00:00 | |
| DL9RDZ-1 | 2026-08-31 11:20:54 | 63.95808 | -22.68155 | 109° | 11km/h | 6425m | 7.3m/s | -34.9°C | 50.4% | 0hPa | 0V | 00:00:00 | 00:00:00 | 00:00:00 | |
| DL9RDZ-1 | 2026-08-31 11:20:43 | 63.95822 | -22.68221 | 140° | 7km/h | 6368m | 8.4m/s | -34.5°C | 52.3% | 0hPa | 0V | 00:00:00 | 00:00:00 | 00:00:00 | |
| DL9RDZ-1 | 2026-08-31 11:20:33 | 63.95835 | -22.68273 | 66° | 9km/h | 6312m | 5.3m/s | -34.0°C | 53.9% | 0hPa | 0V | 00:00:00 | 00:00:00 | 00:00:00 | |
| DL9RDZ-1 | 2026-08-31 11:20:22 | 63.95830 | -22.68336 | 26° | 7km/h | 6244m | 4.4m/s | -33.4°C | 52.1% | 0hPa | 0V | 00:00:00 | 00:00:00 | 00:00:00 | |
| DL9RDZ-1 | 2026-08-31 11:20:12 | 63.95812 | -22.68403 | 85° | 18km/h | 6187m | 7.8m/s | -32.9°C | 49.0% | 0hPa | 0V | 00:00:00 | 00:00:00 | 00:00:00 | |
| DL9RDZ-1 | 2026-08-31 11:20:01 | 63.95796 | -22.68488 | 71° | 20km/h | 6132m | 3.6m/s | -32.4°C | 48.6% | 0hPa | 0V | 00:00:00 | 00:00:00 | 00:00:00 | |
| DL9RDZ-1 | 2026-08-31 11:19:50 | 63.95776 | -22.68556 | 77° | 11km/h | 6077m | 5.0m/s | -31.9°C | 46.7% | 0hPa | 0V | 00:00:00 | 00:00:00 | 00:00:00 | |
| DL9RDZ-1 | 2026-08-31 11:19:39 | 63.95761 | -22.68664 | 63° | 20km/h | 6022m | 5.6m/s | -31.4°C | 43.8% | 0hPa | 0V | 00:00:00 | 00:00:00 | 00:00:00 | |
| DL9RDZ-1 | 2026-08-31 11:19:29 | 63.95757 | -22.68724 | 38° | 11km/h | 5971m | 6.5m/s | -31.0°C | 43.5% | 0hPa | 0V | 00:00:00 | 00:00:00 | 00:00:00 | |
| DL9RDZ-1 | 2026-08-31 11:19:20 | 63.95736 | -22.68771 | 70° | 11km/h | 5915m | 5.0m/s | -30.6°C | 43.8% | 0hPa | 0V | 00:00:00 | 00:00:00 | 00:00:00 | |
| DL9RDZ-1 | 2026-08-31 11:19:08 | 63.95715 | -22.68876 | 360° | 11km/h | 5857m | 5.5m/s | -30.0°C | 43.6% | 0hPa | 0V | 00:00:00 | 00:00:00 | 00:00:00 | |
| DL9RDZ-1 | 2026-08-31 11:18:57 | 63.95705 | -22.68921 | 41° | 11km/h | 5797m | 3.2m/s | -29.5°C | 41.1% | 0hPa | 0V | 00:00:00 | 00:00:00 | 00:00:00 | |
| DL9RDZ-1 | 2026-08-31 11:18:46 | 63.95714 | -22.68988 | 104° | 16km/h | 5739m | 6.7m/s | -29.2°C | 42.1% | 0hPa | 0V | 00:00:00 | 00:00:00 | 00:00:00 | |
| DL9RDZ-1 | 2026-08-31 11:18:35 | 63.95701 | -22.69044 | 91° | 11km/h | 5667m | 6.8m/s | -28.8°C | 41.7% | 0hPa | 0V | 00:00:00 | 00:00:00 | 00:00:00 | |
| DL9RDZ-1 | 2026-08-31 11:18:25 | 63.95709 | -22.69080 | 81° | 7km/h | 5622m | 4.6m/s | -28.4°C | 38.5% | 0hPa | 0V | 00:00:00 | 00:00:00 | 00:00:00 | |
| DL9RDZ-1 | 2026-08-31 11:18:15 | 63.95729 | -22.69147 | 161° | 11km/h | 5560m | 6.0m/s | -28.1°C | 46.1% | 0hPa | 0V | 00:00:00 | 00:00:00 | 00:00:00 | |
| DL9RDZ-1 | 2026-08-31 11:18:05 | 63.95751 | -22.69186 | 219° | 5km/h | 5501m | 6.2m/s | -27.8°C | 49.7% | 0hPa | 0V | 00:00:00 | 00:00:00 | 00:00:00 | |
| DL9RDZ-1 | 2026-08-31 11:17:54 | 63.95766 | -22.69215 | 123° | 13km/h | 5443m | 6.3m/s | -27.3°C | 49.8% | 0hPa | 0V | 00:00:00 | 00:00:00 | 00:00:00 | |
| DL9RDZ-1 | 2026-08-31 11:17:43 | 63.95787 | -22.69261 | 140° | 15km/h | 5383m | 6.7m/s | -26.8°C | 48.8% | 0hPa | 0V | 00:00:00 | 00:00:00 | 00:00:00 | |
| DL9RDZ-1 | 2026-08-31 11:17:32 | 63.95810 | -22.69324 | 99° | 15km/h | 5332m | 8.2m/s | -26.4°C | 49.3% | 0hPa | 0V | 00:00:00 | 00:00:00 | 00:00:00 | |
| DL9RDZ-1 | 2026-08-31 11:16:39 | 63.95917 | -22.69423 | 167° | 16km/h | 5039m | 3.7m/s | -24.2°C | 43.6% | 0hPa | 0V | 00:00:00 | 00:00:00 | 00:00:00 | |
| DL9RDZ-1 | 2026-08-31 11:16:28 | 63.95937 | -22.69457 | 353° | 5km/h | 4975m | 5.5m/s | -23.7°C | 36.9% | 0hPa | 0V | 00:00:00 | 00:00:00 | 00:00:00 | |
| DL9RDZ-1 | 2026-08-31 11:16:17 | 63.95956 | -22.69461 | 127° | 11km/h | 4917m | 5.6m/s | -23.3°C | 36.7% | 0hPa | 0V | 00:00:00 | 00:00:00 | 00:00:00 | |
| DL9RDZ-1 | 2026-08-31 11:16:06 | 63.95984 | -22.69476 | 175° | 16km/h | 4862m | 6.6m/s | -22.9°C | 38.7% | 0hPa | 0V | 00:00:00 | 00:00:00 | 00:00:00 | |
| DL9RDZ-1 | 2026-08-31 11:15:56 | 63.96013 | -22.69493 | 141° | 7km/h | 4806m | 6.7m/s | -22.8°C | 44.2% | 0hPa | 0V | 00:00:00 | 00:00:00 | 00:00:00 | |
| DL9RDZ-1 | 2026-08-31 11:15:46 | 63.96032 | -22.69522 | 133° | 13km/h | 4761m | 3.7m/s | -22.5°C | 78.0% | 0hPa | 0V | 00:00:00 | 00:00:00 | 00:00:00 | |
| DL9RDZ-1 | 2026-08-31 11:15:35 | 63.96083 | -22.69582 | 127° | 20km/h | 4698m | 6.1m/s | -22.0°C | 77.4% | 0hPa | 0V | 00:00:00 | 00:00:00 | 00:00:00 | |
| DL9RDZ-1 | 2026-08-31 11:15:24 | 63.96085 | -22.69667 | 103° | 11km/h | 4640m | 4.6m/s | -21.4°C | 76.4% | 0hPa | 0V | 00:00:00 | 00:00:00 | 00:00:00 | |
| DL9RDZ-1 | 2026-08-31 11:15:13 | 63.96117 | -22.69704 | 131° | 22km/h | 4581m | 6.7m/s | -20.9°C | 74.1% | 0hPa | 0V | 00:00:00 | 00:00:00 | 00:00:00 | |
| DL9RDZ-1 | 2026-08-31 11:14:52 | 63.96167 | -22.69808 | 183° | 16km/h | 4460m | 5.3m/s | -20.1°C | 80.3% | 0hPa | 0V | 00:00:00 | 00:00:00 | 00:00:00 | |
| DL9RDZ-1 | 2026-08-31 11:14:41 | 63.96205 | -22.69835 | 172° | 15km/h | 4389m | 5.0m/s | -19.6°C | 81.1% | 0hPa | 0V | 00:00:00 | 00:00:00 | 00:00:00 | |
| DL9RDZ-1 | 2026-08-31 11:14:14 | 63.96294 | -22.69943 | 172° | 22km/h | 4240m | 5.0m/s | -18.7°C | 70.4% | 0hPa | 0V | 00:00:00 | 00:00:00 | 00:00:00 | |
| DL9RDZ-1 | 2026-08-31 11:14:04 | 63.96335 | -22.69912 | 199° | 22km/h | 4177m | 6.8m/s | -18.1°C | 68.1% | 0hPa | 0V | 00:00:00 | 00:00:00 | 00:00:00 | |
| DL9RDZ-1 | 2026-08-31 11:13:53 | 63.96371 | -22.69934 | 159° | 16km/h | 4116m | 3.2m/s | -17.8°C | 74.8% | 0hPa | 0V | 00:00:00 | 00:00:00 | 00:00:00 | |
| DL9RDZ-1 | 2026-08-31 11:13:42 | 63.96408 | -22.69903 | 274° | 15km/h | 4053m | 7.1m/s | -17.5°C | 81.5% | 0hPa | 0V | 00:00:00 | 00:00:00 | 00:00:00 | |
| DL9RDZ-1 | 2026-08-31 11:13:31 | 63.96427 | -22.69863 | 192° | 7km/h | 3985m | 4.2m/s | -16.9°C | 80.4% | 0hPa | 0V | 00:00:00 | 00:00:00 | 00:00:00 | |
| DL9RDZ-1 | 2026-08-31 11:13:20 | 63.96433 | -22.69806 | 349° | 5km/h | 3923m | 5.3m/s | -16.6°C | 82.3% | 0hPa | 0V | 00:00:00 | 00:00:00 | 00:00:00 | |
| DL9RDZ-1 | 2026-08-31 11:13:10 | 63.96422 | -22.69757 | 191° | 9km/h | 3860m | 7.2m/s | -16.0°C | 78.9% | 0hPa | 0V | 00:00:00 | 00:00:00 | 00:00:00 | |
| DL9RDZ-1 | 2026-08-31 11:12:59 | 63.96429 | -22.69714 | 220° | 9km/h | 3793m | 5.5m/s | -15.3°C | 74.8% | 0hPa | 0V | 00:00:00 | 00:00:00 | 00:00:00 | |
| DL9RDZ-1 | 2026-08-31 11:12:48 | 63.96441 | -22.69643 | 186° | 11km/h | 3728m | 8.8m/s | -14.8°C | 69.0% | 0hPa | 0V | 00:00:00 | 00:00:00 | 00:00:00 | |
| DL9RDZ-1 | 2026-08-31 11:12:37 | 63.96457 | -22.69564 | 241° | 15km/h | 3664m | 5.8m/s | -14.2°C | 67.7% | 0hPa | 0V | 00:00:00 | 00:00:00 | 00:00:00 | |
| DL9RDZ-1 | 2026-08-31 11:12:27 | 63.96484 | -22.69533 | 285° | 7km/h | 3620m | 5.6m/s | -13.8°C | 65.2% | 0hPa | 0V | 00:00:00 | 00:00:00 | 00:00:00 | |
| DL9RDZ-1 | 2026-08-31 11:12:17 | 63.96498 | -22.69475 | 259° | 15km/h | 3565m | 4.4m/s | -13.3°C | 64.8% | 0hPa | 0V | 00:00:00 | 00:00:00 | 00:00:00 | |
| DL9RDZ-1 | 2026-08-31 11:12:07 | 63.96515 | -22.69423 | 203° | 22km/h | 3509m | 4.6m/s | -13.0°C | 54.8% | 0hPa | 0V | 00:00:00 | 00:00:00 | 00:00:00 | |
| DL9RDZ-1 | 2026-08-31 11:11:56 | 63.96555 | -22.69370 | 214° | 11km/h | 3454m | 3.8m/s | -12.6°C | 49.9% | 0hPa | 0V | 00:00:00 | 00:00:00 | 00:00:00 | |
| DL9RDZ-1 | 2026-08-31 11:11:45 | 63.96582 | -22.69296 | 242° | 27km/h | 3394m | 8.1m/s | -12.2°C | 49.7% | 0hPa | 0V | 00:00:00 | 00:00:00 | 00:00:00 | |
| DL9RDZ-1 | 2026-08-31 11:11:35 | 63.96608 | -22.69174 | 240° | 31km/h | 3336m | 8.3m/s | -11.8°C | 51.7% | 0hPa | 0V | 00:00:00 | 00:00:00 | 00:00:00 | |
| DL9RDZ-1 | 2026-08-31 11:11:24 | 63.96614 | -22.69045 | 277° | 22km/h | 3272m | 5.6m/s | -11.5°C | 55.5% | 0hPa | 0V | 00:00:00 | 00:00:00 | 00:00:00 | |
| DL9RDZ-1 | 2026-08-31 11:11:13 | 63.96628 | -22.68969 | 184° | 13km/h | 3214m | 6.8m/s | -11.4°C | 61.1% | 0hPa | 0V | 00:00:00 | 00:00:00 | 00:00:00 | |
| DL9RDZ-1 | 2026-08-31 11:11:03 | 63.96643 | -22.68899 | 277° | 15km/h | 3154m | 6.1m/s | -11.4°C | 72.1% | 0hPa | 0V | 00:00:00 | 00:00:00 | 00:00:00 | |
| DL9RDZ-1 | 2026-08-31 11:10:52 | 63.96656 | -22.68806 | 249° | 16km/h | 3095m | 6.9m/s | -11.1°C | 73.5% | 0hPa | 0V | 00:00:00 | 00:00:00 | 00:00:00 | |
| DL9RDZ-1 | 2026-08-31 11:10:42 | 63.96672 | -22.68724 | 209° | 18km/h | 3031m | 5.4m/s | -10.6°C | 76.2% | 0hPa | 0V | 00:00:00 | 00:00:00 | 00:00:00 | |
| DL9RDZ-1 | 2026-08-31 11:10:32 | 63.96710 | -22.68586 | 265° | 24km/h | 2980m | 6.9m/s | -10.2°C | 75.0% | 0hPa | 0V | 00:00:00 | 00:00:00 | 00:00:00 | |
| DL9RDZ-1 | 2026-08-31 11:10:22 | 63.96733 | -22.68518 | 297° | 15km/h | 2924m | 4.2m/s | -9.7°C | 81.2% | 0hPa | 0V | 00:00:00 | 00:00:00 | 00:00:00 | |
| DL9RDZ-1 | 2026-08-31 11:10:01 | 63.96747 | -22.68364 | 269° | 16km/h | 2814m | 5.1m/s | -9.0°C | 80.4% | 0hPa | 0V | 00:00:00 | 00:00:00 | 00:00:00 | |
| DL9RDZ-1 | 2026-08-31 11:09:50 | 63.96768 | -22.68285 | 261° | 15km/h | 2757m | 4.5m/s | -8.5°C | 79.1% | 0hPa | 0V | 00:00:00 | 00:00:00 | 00:00:00 | |
| DL9RDZ-1 | 2026-08-31 11:09:40 | 63.96783 | -22.68214 | 213° | 15km/h | 2699m | 5.5m/s | -8.0°C | 77.5% | 0hPa | 0V | 00:00:00 | 00:00:00 | 00:00:00 | |
| DL9RDZ-1 | 2026-08-31 11:09:30 | 63.96810 | -22.68140 | 256° | 18km/h | 2645m | 6.6m/s | -7.5°C | 0% | 0hPa | 0V | 00:00:00 | 00:00:00 | 00:00:00 | |
| DL9RDZ-1 | 2026-08-31 11:09:19 | 63.96799 | -22.68036 | 249° | 7km/h | 2577m | 5.7m/s | -7.1°C | 0% | 0hPa | 0V | 00:00:00 | 00:00:00 | 00:00:00 | |
| DL9RDZ-1 | 2026-08-31 11:09:08 | 63.96798 | -22.67937 | 266° | 29km/h | 2513m | 4.7m/s | -6.9°C | 0% | 0hPa | 0V | 00:00:00 | 00:00:00 | 00:00:00 | |
| DL9RDZ-1 | 2026-08-31 11:08:58 | 63.96800 | -22.67807 | 271° | 18km/h | 2456m | 5.1m/s | -6.5°C | 0% | 0hPa | 0V | 00:00:00 | 00:00:00 | 00:00:00 | |
| DL9RDZ-1 | 2026-08-31 11:08:47 | 63.96799 | -22.67649 | 286° | 31km/h | 2397m | 4.9m/s | -6.1°C | 0% | 0hPa | 0V | 00:00:00 | 00:00:00 | 00:00:00 | |
| DL9RDZ-1 | 2026-08-31 11:08:35 | 63.96797 | -22.67470 | 272° | 29km/h | 2328m | 4.4m/s | 0°C | 0% | 0hPa | 0V | 00:00:00 | 00:00:00 | 00:00:00 | |
| DL9RDZ-1 | 2026-08-31 11:08:24 | 63.96807 | -22.67327 | 270° | 33km/h | 2272m | 5.7m/s | 0°C | 0% | 0hPa | 0V | 00:00:00 | 00:00:00 | 00:00:00 | |
| DL9RDZ-1 | 2026-08-31 11:08:13 | 63.96812 | -22.67184 | 257° | 13km/h | 2217m | 3.2m/s | 0°C | 0% | 0hPa | 0V | 00:00:00 | 00:00:00 | 00:00:00 | |
| DL9RDZ-1 | 2026-08-31 11:08:00 | 63.96802 | -22.67006 | 242° | 22km/h | 2138m | 4.9m/s | 0°C | 0% | 0hPa | 0V | 00:00:00 | 00:00:00 | 00:00:00 | |
| DL9RDZ-1 | 2026-08-31 11:06:07 | 63.96869 | -22.65260 | 264° | 35km/h | 1504m | 5.1m/s | 0°C | 0% | 0hPa | 0V | 00:00:00 | 00:00:00 | 00:00:00 | |
| DL9RDZ-1 | 2026-08-31 11:05:49 | 63.96902 | -22.64934 | 262° | 26km/h | 1406m | 6.0m/s | 0°C | 0% | 0hPa | 0V | 00:00:00 | 00:00:00 | 00:00:00 | |
| DL9RDZ-1 | 2026-08-31 11:05:37 | 63.96931 | -22.64709 | 252° | 27km/h | 1342m | 6.2m/s | 0°C | 0% | 0hPa | 0V | 00:00:00 | 00:00:00 | 00:00:00 | |
| DL9RDZ-1 | 2026-08-31 11:05:26 | 63.96953 | -22.64541 | 256° | 35km/h | 1284m | 5.5m/s | 0°C | 0% | 0hPa | 0V | 00:00:00 | 00:00:00 | 00:00:00 |